<?xml version='1.0' encoding='utf-8'?>
<gpx xmlns="http://www.topografix.com/GPX/1/1" xmlns:om="http://www.oruxmaps.com/oruxmapsextensions/1/0" xmlns:xsi="http://www.w3.org/2001/XMLSchema-instance" creator="OruxMaps v.6.0.7 Donate" version="1.1" xsi:schemaLocation="http://www.topografix.com/GPX/1/1 http://www.topografix.com/GPX/1/1/gpx.xsd">
<metadata>
<name>2015-04-29 10:15</name>
<desc />
<link href="http://www.oruxmaps.com">
<text>OruxMaps</text>
</link>
<time>2015-04-29T07:15:37Z</time><bounds maxlat="34.9834054" maxlon="32.9399454" minlat="34.8798379" minlon="32.8227848" />
</metadata>
<trk>
<name>2015-04-29 10:15</name>
<desc>&lt;h1&gt;OruxMaps&lt;/h1&gt;&lt;br /&gt;&lt;hr align="center" width="480" style="height: 2px; width: 517px"/&gt;&lt;h2&gt;Name: 2015-04-29 10:15&lt;/h2&gt;&lt;br /&gt;&lt;p&gt;Start time: 04/29/2015 10:16&lt;/p&gt;&lt;p&gt;Finish time: 04/29/2015 20:30&lt;/p&gt;&lt;p&gt;Distance: 69.5km (10:14)&lt;/p&gt;&lt;p&gt;Moving time: 07:02&lt;/p&gt;&lt;p&gt;Average speed: 6.8km/h&lt;/p&gt;&lt;p&gt;Avg. Speed Mov.: 9.9km/h&lt;/p&gt;&lt;p&gt;Max. Speed: 52.7km/h&lt;/p&gt;&lt;p&gt;Minimum altitude: 801m&lt;/p&gt;&lt;p&gt;Maximum altitude: 1475m&lt;/p&gt;&lt;p&gt;Ascent speed: 383.6m/h&lt;/p&gt;&lt;p&gt;Descent speed: -889.4m/h&lt;/p&gt;&lt;p&gt;Elevation gain: 2301m&lt;/p&gt;&lt;p&gt;Elevation loss: -2298m&lt;/p&gt;&lt;p&gt;Ascent time: 05:59&lt;/p&gt;&lt;p&gt;Descent time: 02:35&lt;/p&gt;&lt;hr align="center" width="480" style="height: 2px; width: 517px"/&gt;</desc>
<type>Undefined</type>
<extensions>
<om:oruxmapsextensions>
<om:ext type="TYPE" subtype="0">0</om:ext>
</om:oruxmapsextensions>
</extensions>
<trkseg>
<trkpt lat="34.9676974" lon="32.8275838">
<ele>1107.5</ele>
<time>2015-04-29T07:16:00Z</time>
</trkpt>
<trkpt lat="34.9678277" lon="32.8277035">
<ele>1106.8</ele>
<time>2015-04-29T07:16:04Z</time>
</trkpt>
<trkpt lat="34.9673442" lon="32.8274366">
<ele>1111.5</ele>
<time>2015-04-29T07:17:08Z</time>
</trkpt>
<trkpt lat="34.9668739" lon="32.8275366">
<ele>1119.6</ele>
<time>2015-04-29T07:17:37Z</time>
</trkpt>
<trkpt lat="34.9649737" lon="32.8291194">
<ele>1130.5</ele>
<time>2015-04-29T07:20:18Z</time>
</trkpt>
<trkpt lat="34.9642739" lon="32.8289322">
<ele>1136.8</ele>
<time>2015-04-29T07:21:04Z</time>
</trkpt>
<trkpt lat="34.9619502" lon="32.8289705">
<ele>1155.0</ele>
<time>2015-04-29T07:23:26Z</time>
</trkpt>
<trkpt lat="34.9617781" lon="32.8287776">
<ele>1162.3</ele>
<time>2015-04-29T07:23:54Z</time>
</trkpt>
<trkpt lat="34.9622965" lon="32.8285190">
<ele>1166.3</ele>
<time>2015-04-29T07:24:29Z</time>
</trkpt>
<trkpt lat="34.9639068" lon="32.8282972">
<ele>1171.7</ele>
<time>2015-04-29T07:26:00Z</time>
</trkpt>
<trkpt lat="34.9615512" lon="32.8279203">
<ele>1192.0</ele>
<time>2015-04-29T07:28:48Z</time>
</trkpt>
<trkpt lat="34.9605726" lon="32.8271144">
<ele>1205.5</ele>
<time>2015-04-29T07:30:09Z</time>
</trkpt>
<trkpt lat="34.9598185" lon="32.8270144">
<ele>1217.0</ele>
<time>2015-04-29T07:31:03Z</time>
</trkpt>
<trkpt lat="34.9595723" lon="32.8271372">
<ele>1224.5</ele>
<time>2015-04-29T07:31:20Z</time>
</trkpt>
<trkpt lat="34.9596074" lon="32.8278511">
<ele>1224.9</ele>
<time>2015-04-29T07:31:56Z</time>
</trkpt>
<trkpt lat="34.9591353" lon="32.8283919">
<ele>1236.8</ele>
<time>2015-04-29T07:32:38Z</time>
</trkpt>
<trkpt lat="34.9591627" lon="32.8289839">
<ele>1230.7</ele>
<time>2015-04-29T07:33:17Z</time>
</trkpt>
<trkpt lat="34.9580516" lon="32.8293784">
<ele>1243.5</ele>
<time>2015-04-29T07:34:32Z</time>
</trkpt>
<trkpt lat="34.9579998" lon="32.8297888">
<ele>1256.1</ele>
<time>2015-04-29T07:34:55Z</time>
</trkpt>
<trkpt lat="34.9582825" lon="32.8303202">
<ele>1254.3</ele>
<time>2015-04-29T07:35:29Z</time>
</trkpt>
<trkpt lat="34.9582905" lon="32.8307286">
<ele>1250.9</ele>
<time>2015-04-29T07:35:52Z</time>
</trkpt>
<trkpt lat="34.9576491" lon="32.8311955">
<ele>1262.1</ele>
<time>2015-04-29T07:36:40Z</time>
</trkpt>
<trkpt lat="34.9574329" lon="32.8319624">
<ele>1273.9</ele>
<time>2015-04-29T07:41:58Z</time>
</trkpt>
<trkpt lat="34.9575174" lon="32.8321136">
<ele>1272.7</ele>
<time>2015-04-29T07:42:21Z</time>
</trkpt>
<trkpt lat="34.9580565" lon="32.8321295">
<ele>1267.7</ele>
<time>2015-04-29T07:42:54Z</time>
</trkpt>
<trkpt lat="34.9588517" lon="32.8330833">
<ele>1282.5</ele>
<time>2015-04-29T07:43:53Z</time>
</trkpt>
<trkpt lat="34.9590502" lon="32.8342684">
<ele>1285.3</ele>
<time>2015-04-29T07:44:50Z</time>
</trkpt>
<trkpt lat="34.9585566" lon="32.8354981">
<ele>1298.2</ele>
<time>2015-04-29T07:46:07Z</time>
</trkpt>
<trkpt lat="34.9593406" lon="32.8360122">
<ele>1304.0</ele>
<time>2015-04-29T07:47:06Z</time>
</trkpt>
<trkpt lat="34.9595276" lon="32.8367805">
<ele>1306.8</ele>
<time>2015-04-29T07:47:52Z</time>
</trkpt>
<trkpt lat="34.9593346" lon="32.8372676">
<ele>1308.3</ele>
<time>2015-04-29T07:48:31Z</time>
</trkpt>
<trkpt lat="34.9597507" lon="32.8376616">
<ele>1305.9</ele>
<time>2015-04-29T07:49:14Z</time>
</trkpt>
<trkpt lat="34.9592589" lon="32.8372552">
<ele>1308.7</ele>
<time>2015-04-29T07:50:24Z</time>
</trkpt>
<trkpt lat="34.9581748" lon="32.8370957">
<ele>1315.3</ele>
<time>2015-04-29T07:51:28Z</time>
</trkpt>
<trkpt lat="34.9570288" lon="32.8365756">
<ele>1336.1</ele>
<time>2015-04-29T07:53:02Z</time>
</trkpt>
<trkpt lat="34.9571854" lon="32.8359543">
<ele>1337.5</ele>
<time>2015-04-29T07:55:51Z</time>
</trkpt>
<trkpt lat="34.9571019" lon="32.8352582">
<ele>1347.4</ele>
<time>2015-04-29T07:56:21Z</time>
</trkpt>
<trkpt lat="34.9576328" lon="32.8344740">
<ele>1336.3</ele>
<time>2015-04-29T07:56:55Z</time>
</trkpt>
<trkpt lat="34.9574502" lon="32.8341798">
<ele>1341.2</ele>
<time>2015-04-29T07:57:13Z</time>
</trkpt>
<trkpt lat="34.9562405" lon="32.8338585">
<ele>1354.7</ele>
<time>2015-04-29T07:58:26Z</time>
</trkpt>
<trkpt lat="34.9548757" lon="32.8348583">
<ele>1368.1</ele>
<time>2015-04-29T07:59:58Z</time>
</trkpt>
<trkpt lat="34.9543413" lon="32.8349760">
<ele>1377.8</ele>
<time>2015-04-29T08:00:25Z</time>
</trkpt>
<trkpt lat="34.9537737" lon="32.8346860">
<ele>1385.0</ele>
<time>2015-04-29T08:00:58Z</time>
</trkpt>
<trkpt lat="34.9535161" lon="32.8339258">
<ele>1382.4</ele>
<time>2015-04-29T08:01:36Z</time>
</trkpt>
<trkpt lat="34.9526824" lon="32.8336466">
<ele>1394.1</ele>
<time>2015-04-29T08:02:32Z</time>
</trkpt>
<trkpt lat="34.9525911" lon="32.8329974">
<ele>1386.7</ele>
<time>2015-04-29T08:03:14Z</time>
</trkpt>
<trkpt lat="34.9507473" lon="32.8336076">
<ele>1403.8</ele>
<time>2015-04-29T08:07:19Z</time>
</trkpt>
<trkpt lat="34.9504573" lon="32.8334105">
<ele>1409.6</ele>
<time>2015-04-29T08:07:29Z</time>
</trkpt>
<trkpt lat="34.9499973" lon="32.8326281">
<ele>1398.9</ele>
<time>2015-04-29T08:07:57Z</time>
</trkpt>
<trkpt lat="34.9494729" lon="32.8329275">
<ele>1388.9</ele>
<time>2015-04-29T08:09:59Z</time>
</trkpt>
<trkpt lat="34.9498565" lon="32.8325954">
<ele>1398.9</ele>
<time>2015-04-29T08:13:05Z</time>
</trkpt>
<trkpt lat="34.9503135" lon="32.8336728">
<ele>1417.8</ele>
<time>2015-04-29T08:13:59Z</time>
</trkpt>
<trkpt lat="34.9495530" lon="32.8357636">
<ele>1421.0</ele>
<time>2015-04-29T08:15:55Z</time>
</trkpt>
<trkpt lat="34.9497124" lon="32.8369168">
<ele>1428.4</ele>
<time>2015-04-29T08:16:23Z</time>
</trkpt>
<trkpt lat="34.9489972" lon="32.8373119">
<ele>1434.6</ele>
<time>2015-04-29T08:16:39Z</time>
</trkpt>
<trkpt lat="34.9488436" lon="32.8369503">
<ele>1432.8</ele>
<time>2015-04-29T08:16:49Z</time>
</trkpt>
<trkpt lat="34.9477694" lon="32.8362700">
<ele>1424.1</ele>
<time>2015-04-29T08:17:23Z</time>
</trkpt>
<trkpt lat="34.9471472" lon="32.8366560">
<ele>1415.7</ele>
<time>2015-04-29T08:17:42Z</time>
</trkpt>
<trkpt lat="34.9464919" lon="32.8374480">
<ele>1416.1</ele>
<time>2015-04-29T08:17:56Z</time>
</trkpt>
<trkpt lat="34.9458444" lon="32.8377916">
<ele>1410.1</ele>
<time>2015-04-29T08:18:07Z</time>
</trkpt>
<trkpt lat="34.9456454" lon="32.8381883">
<ele>1416.4</ele>
<time>2015-04-29T08:18:56Z</time>
</trkpt>
<trkpt lat="34.9459064" lon="32.8378209">
<ele>1413.2</ele>
<time>2015-04-29T08:19:23Z</time>
</trkpt>
<trkpt lat="34.9463226" lon="32.8376004">
<ele>1415.1</ele>
<time>2015-04-29T08:19:36Z</time>
</trkpt>
<trkpt lat="34.9460784" lon="32.8384192">
<ele>1432.2</ele>
<time>2015-04-29T08:22:05Z</time>
</trkpt>
<trkpt lat="34.9453925" lon="32.8389525">
<ele>1436.7</ele>
<time>2015-04-29T08:22:48Z</time>
</trkpt>
<trkpt lat="34.9449068" lon="32.8386819">
<ele>1432.1</ele>
<time>2015-04-29T08:23:22Z</time>
</trkpt>
<trkpt lat="34.9429775" lon="32.8391325">
<ele>1436.8</ele>
<time>2015-04-29T08:24:26Z</time>
</trkpt>
<trkpt lat="34.9425937" lon="32.8402571">
<ele>1455.0</ele>
<time>2015-04-29T08:25:35Z</time>
</trkpt>
<trkpt lat="34.9420515" lon="32.8407482">
<ele>1463.3</ele>
<time>2015-04-29T08:26:21Z</time>
</trkpt>
<trkpt lat="34.9413559" lon="32.8410100">
<ele>1450.0</ele>
<time>2015-04-29T08:27:09Z</time>
</trkpt>
<trkpt lat="34.9415694" lon="32.8421296">
<ele>1458.5</ele>
<time>2015-04-29T08:27:58Z</time>
</trkpt>
<trkpt lat="34.9414544" lon="32.8430278">
<ele>1472.2</ele>
<time>2015-04-29T08:28:44Z</time>
</trkpt>
<trkpt lat="34.9403021" lon="32.8424254">
<ele>1462.3</ele>
<time>2015-04-29T08:30:03Z</time>
</trkpt>
<trkpt lat="34.9398124" lon="32.8427692">
<ele>1463.1</ele>
<time>2015-04-29T08:30:17Z</time>
</trkpt>
<trkpt lat="34.9392671" lon="32.8428566">
<ele>1459.7</ele>
<time>2015-04-29T08:30:29Z</time>
</trkpt>
<trkpt lat="34.9385191" lon="32.8422632">
<ele>1448.7</ele>
<time>2015-04-29T08:30:51Z</time>
</trkpt>
<trkpt lat="34.9379243" lon="32.8426298">
<ele>1446.8</ele>
<time>2015-04-29T08:31:10Z</time>
</trkpt>
<trkpt lat="34.9376949" lon="32.8425895">
<ele>1453.2</ele>
<time>2015-04-29T08:31:15Z</time>
</trkpt>
<trkpt lat="34.9371556" lon="32.8410239">
<ele>1444.3</ele>
<time>2015-04-29T08:31:42Z</time>
</trkpt>
<trkpt lat="34.9357339" lon="32.8397588">
<ele>1452.1</ele>
<time>2015-04-29T08:32:41Z</time>
</trkpt>
<trkpt lat="34.9351372" lon="32.8395945">
<ele>1443.3</ele>
<time>2015-04-29T08:33:06Z</time>
</trkpt>
<trkpt lat="34.9342485" lon="32.8407358">
<ele>1456.9</ele>
<time>2015-04-29T08:35:19Z</time>
</trkpt>
<trkpt lat="34.9339227" lon="32.8406638">
<ele>1456.4</ele>
<time>2015-04-29T08:35:31Z</time>
</trkpt>
<trkpt lat="34.9336623" lon="32.8408406">
<ele>1463.2</ele>
<time>2015-04-29T08:35:41Z</time>
</trkpt>
<trkpt lat="34.9330945" lon="32.8407031">
<ele>1458.9</ele>
<time>2015-04-29T08:35:59Z</time>
</trkpt>
<trkpt lat="34.9326300" lon="32.8409170">
<ele>1448.9</ele>
<time>2015-04-29T08:36:10Z</time>
</trkpt>
<trkpt lat="34.9322819" lon="32.8412770">
<ele>1437.2</ele>
<time>2015-04-29T08:36:19Z</time>
</trkpt>
<trkpt lat="34.9318955" lon="32.8427241">
<ele>1450.4</ele>
<time>2015-04-29T08:36:49Z</time>
</trkpt>
<trkpt lat="34.9307485" lon="32.8415668">
<ele>1433.9</ele>
<time>2015-04-29T08:43:42Z</time>
</trkpt>
<trkpt lat="34.9299675" lon="32.8416380">
<ele>1442.2</ele>
<time>2015-04-29T08:44:12Z</time>
</trkpt>
<trkpt lat="34.9299702" lon="32.8410773">
<ele>1436.8</ele>
<time>2015-04-29T08:44:32Z</time>
</trkpt>
<trkpt lat="34.9297914" lon="32.8406967">
<ele>1443.2</ele>
<time>2015-04-29T08:44:42Z</time>
</trkpt>
<trkpt lat="34.9300047" lon="32.8402316">
<ele>1436.5</ele>
<time>2015-04-29T08:44:54Z</time>
</trkpt>
<trkpt lat="34.9298524" lon="32.8392892">
<ele>1446.5</ele>
<time>2015-04-29T08:45:24Z</time>
</trkpt>
<trkpt lat="34.9300174" lon="32.8382109">
<ele>1443.7</ele>
<time>2015-04-29T08:46:02Z</time>
</trkpt>
<trkpt lat="34.9295093" lon="32.8373017">
<ele>1441.9</ele>
<time>2015-04-29T08:46:20Z</time>
</trkpt>
<trkpt lat="34.9293873" lon="32.8365209">
<ele>1430.9</ele>
<time>2015-04-29T08:46:33Z</time>
</trkpt>
<trkpt lat="34.9283826" lon="32.8362089">
<ele>1417.8</ele>
<time>2015-04-29T08:46:58Z</time>
</trkpt>
<trkpt lat="34.9277898" lon="32.8368299">
<ele>1411.8</ele>
<time>2015-04-29T08:47:14Z</time>
</trkpt>
<trkpt lat="34.9274358" lon="32.8368593">
<ele>1410.3</ele>
<time>2015-04-29T08:47:20Z</time>
</trkpt>
<trkpt lat="34.9264239" lon="32.8361953">
<ele>1396.0</ele>
<time>2015-04-29T08:48:25Z</time>
</trkpt>
<trkpt lat="34.9272641" lon="32.8358570">
<ele>1386.6</ele>
<time>2015-04-29T08:48:53Z</time>
</trkpt>
<trkpt lat="34.9274320" lon="32.8356426">
<ele>1383.2</ele>
<time>2015-04-29T08:48:58Z</time>
</trkpt>
<trkpt lat="34.9266652" lon="32.8347676">
<ele>1367.0</ele>
<time>2015-04-29T08:49:20Z</time>
</trkpt>
<trkpt lat="34.9272021" lon="32.8345939">
<ele>1359.6</ele>
<time>2015-04-29T08:49:33Z</time>
</trkpt>
<trkpt lat="34.9268686" lon="32.8341084">
<ele>1350.1</ele>
<time>2015-04-29T08:49:46Z</time>
</trkpt>
<trkpt lat="34.9271610" lon="32.8333885">
<ele>1334.2</ele>
<time>2015-04-29T08:50:00Z</time>
</trkpt>
<trkpt lat="34.9271787" lon="32.8325818">
<ele>1325.8</ele>
<time>2015-04-29T08:50:14Z</time>
</trkpt>
<trkpt lat="34.9266203" lon="32.8316809">
<ele>1321.3</ele>
<time>2015-04-29T08:51:04Z</time>
</trkpt>
<trkpt lat="34.9254816" lon="32.8310812">
<ele>1319.6</ele>
<time>2015-04-29T08:51:23Z</time>
</trkpt>
<trkpt lat="34.9243107" lon="32.8317783">
<ele>1323.6</ele>
<time>2015-04-29T08:52:01Z</time>
</trkpt>
<trkpt lat="34.9242644" lon="32.8322874">
<ele>1324.0</ele>
<time>2015-04-29T08:52:20Z</time>
</trkpt>
<trkpt lat="34.9244630" lon="32.8329013">
<ele>1335.8</ele>
<time>2015-04-29T08:52:41Z</time>
</trkpt>
<trkpt lat="34.9243692" lon="32.8332221">
<ele>1338.9</ele>
<time>2015-04-29T08:52:53Z</time>
</trkpt>
<trkpt lat="34.9231975" lon="32.8345673">
<ele>1348.4</ele>
<time>2015-04-29T08:53:52Z</time>
</trkpt>
<trkpt lat="34.9228420" lon="32.8346468">
<ele>1354.0</ele>
<time>2015-04-29T08:54:29Z</time>
</trkpt>
<trkpt lat="34.9222829" lon="32.8344306">
<ele>1357.1</ele>
<time>2015-04-29T08:54:52Z</time>
</trkpt>
<trkpt lat="34.9216791" lon="32.8333374">
<ele>1367.1</ele>
<time>2015-04-29T08:55:28Z</time>
</trkpt>
<trkpt lat="34.9199084" lon="32.8313457">
<ele>1365.0</ele>
<time>2015-04-29T08:57:02Z</time>
</trkpt>
<trkpt lat="34.9196912" lon="32.8313262">
<ele>1357.3</ele>
<time>2015-04-29T08:59:29Z</time>
</trkpt>
<trkpt lat="34.9195086" lon="32.8324330">
<ele>1368.8</ele>
<time>2015-04-29T09:00:07Z</time>
</trkpt>
<trkpt lat="34.9191387" lon="32.8330000">
<ele>1380.3</ele>
<time>2015-04-29T09:00:27Z</time>
</trkpt>
<trkpt lat="34.9183969" lon="32.8331809">
<ele>1390.2</ele>
<time>2015-04-29T09:00:51Z</time>
</trkpt>
<trkpt lat="34.9177573" lon="32.8325989">
<ele>1385.2</ele>
<time>2015-04-29T09:01:24Z</time>
</trkpt>
<trkpt lat="34.9172732" lon="32.8329424">
<ele>1401.7</ele>
<time>2015-04-29T09:01:42Z</time>
</trkpt>
<trkpt lat="34.9164476" lon="32.8329439">
<ele>1405.2</ele>
<time>2015-04-29T09:02:06Z</time>
</trkpt>
<trkpt lat="34.9155739" lon="32.8317840">
<ele>1412.1</ele>
<time>2015-04-29T09:02:48Z</time>
</trkpt>
<trkpt lat="34.9154209" lon="32.8297422">
<ele>1395.4</ele>
<time>2015-04-29T09:16:19Z</time>
</trkpt>
<trkpt lat="34.9146937" lon="32.8306607">
<ele>1397.7</ele>
<time>2015-04-29T09:17:02Z</time>
</trkpt>
<trkpt lat="34.9146887" lon="32.8317125">
<ele>1399.6</ele>
<time>2015-04-29T09:17:23Z</time>
</trkpt>
<trkpt lat="34.9140344" lon="32.8329256">
<ele>1398.4</ele>
<time>2015-04-29T09:17:38Z</time>
</trkpt>
<trkpt lat="34.9127971" lon="32.8330689">
<ele>1398.8</ele>
<time>2015-04-29T09:17:52Z</time>
</trkpt>
<trkpt lat="34.9115108" lon="32.8323438">
<ele>1378.4</ele>
<time>2015-04-29T09:18:08Z</time>
</trkpt>
<trkpt lat="34.9108416" lon="32.8333263">
<ele>1376.0</ele>
<time>2015-04-29T09:18:21Z</time>
</trkpt>
<trkpt lat="34.9101667" lon="32.8339722">
<ele>1365.9</ele>
<time>2015-04-29T09:18:31Z</time>
</trkpt>
<trkpt lat="34.9103372" lon="32.8347667">
<ele>1362.9</ele>
<time>2015-04-29T09:18:41Z</time>
</trkpt>
<trkpt lat="34.9100266" lon="32.8360419">
<ele>1351.0</ele>
<time>2015-04-29T09:18:54Z</time>
</trkpt>
<trkpt lat="34.9120222" lon="32.8362376">
<ele>1339.3</ele>
<time>2015-04-29T09:19:19Z</time>
</trkpt>
<trkpt lat="34.9121679" lon="32.8364518">
<ele>1336.3</ele>
<time>2015-04-29T09:19:22Z</time>
</trkpt>
<trkpt lat="34.9122254" lon="32.8372395">
<ele>1325.0</ele>
<time>2015-04-29T09:19:40Z</time>
</trkpt>
<trkpt lat="34.9118958" lon="32.8365707">
<ele>1328.1</ele>
<time>2015-04-29T09:24:10Z</time>
</trkpt>
<trkpt lat="34.9112768" lon="32.8366720">
<ele>1323.4</ele>
<time>2015-04-29T09:24:23Z</time>
</trkpt>
<trkpt lat="34.9108102" lon="32.8370847">
<ele>1310.3</ele>
<time>2015-04-29T09:24:34Z</time>
</trkpt>
<trkpt lat="34.9102972" lon="32.8369895">
<ele>1313.0</ele>
<time>2015-04-29T09:24:47Z</time>
</trkpt>
<trkpt lat="34.9099642" lon="32.8373978">
<ele>1301.8</ele>
<time>2015-04-29T09:24:59Z</time>
</trkpt>
<trkpt lat="34.9093242" lon="32.8377064">
<ele>1293.7</ele>
<time>2015-04-29T09:25:09Z</time>
</trkpt>
<trkpt lat="34.9091167" lon="32.8376434">
<ele>1288.0</ele>
<time>2015-04-29T09:25:21Z</time>
</trkpt>
<trkpt lat="34.9097772" lon="32.8376048">
<ele>1296.0</ele>
<time>2015-04-29T09:26:00Z</time>
</trkpt>
<trkpt lat="34.9113771" lon="32.8370074">
<ele>1308.2</ele>
<time>2015-04-29T09:27:29Z</time>
</trkpt>
<trkpt lat="34.9116350" lon="32.8371636">
<ele>1304.7</ele>
<time>2015-04-29T09:27:40Z</time>
</trkpt>
<trkpt lat="34.9118926" lon="32.8377451">
<ele>1300.3</ele>
<time>2015-04-29T09:27:54Z</time>
</trkpt>
<trkpt lat="34.9133259" lon="32.8380417">
<ele>1309.6</ele>
<time>2015-04-29T09:28:25Z</time>
</trkpt>
<trkpt lat="34.9119988" lon="32.8378424">
<ele>1300.2</ele>
<time>2015-04-29T09:29:04Z</time>
</trkpt>
<trkpt lat="34.9116482" lon="32.8371526">
<ele>1305.6</ele>
<time>2015-04-29T09:29:23Z</time>
</trkpt>
<trkpt lat="34.9113590" lon="32.8370418">
<ele>1306.8</ele>
<time>2015-04-29T09:29:30Z</time>
</trkpt>
<trkpt lat="34.9092006" lon="32.8377656">
<ele>1288.2</ele>
<time>2015-04-29T09:30:17Z</time>
</trkpt>
<trkpt lat="34.9088023" lon="32.8372927">
<ele>1281.3</ele>
<time>2015-04-29T09:31:38Z</time>
</trkpt>
<trkpt lat="34.9086121" lon="32.8362146">
<ele>1269.3</ele>
<time>2015-04-29T09:31:54Z</time>
</trkpt>
<trkpt lat="34.9086691" lon="32.8357934">
<ele>1275.5</ele>
<time>2015-04-29T09:32:01Z</time>
</trkpt>
<trkpt lat="34.9079973" lon="32.8354448">
<ele>1263.2</ele>
<time>2015-04-29T09:32:15Z</time>
</trkpt>
<trkpt lat="34.9074789" lon="32.8349208">
<ele>1250.9</ele>
<time>2015-04-29T09:32:27Z</time>
</trkpt>
<trkpt lat="34.9074753" lon="32.8337127">
<ele>1252.4</ele>
<time>2015-04-29T09:32:45Z</time>
</trkpt>
<trkpt lat="34.9072318" lon="32.8332080">
<ele>1243.5</ele>
<time>2015-04-29T09:32:53Z</time>
</trkpt>
<trkpt lat="34.9073243" lon="32.8326759">
<ele>1247.2</ele>
<time>2015-04-29T09:33:01Z</time>
</trkpt>
<trkpt lat="34.9068280" lon="32.8322808">
<ele>1238.7</ele>
<time>2015-04-29T09:33:13Z</time>
</trkpt>
<trkpt lat="34.9071878" lon="32.8318041">
<ele>1235.7</ele>
<time>2015-04-29T09:33:32Z</time>
</trkpt>
<trkpt lat="34.9085131" lon="32.8310860">
<ele>1225.2</ele>
<time>2015-04-29T09:34:16Z</time>
</trkpt>
<trkpt lat="34.9079977" lon="32.8303479">
<ele>1203.0</ele>
<time>2015-04-29T09:34:32Z</time>
</trkpt>
<trkpt lat="34.9086134" lon="32.8290491">
<ele>1203.3</ele>
<time>2015-04-29T09:34:51Z</time>
</trkpt>
<trkpt lat="34.9082710" lon="32.8283990">
<ele>1189.8</ele>
<time>2015-04-29T09:35:07Z</time>
</trkpt>
<trkpt lat="34.9081771" lon="32.8287092">
<ele>1183.5</ele>
<time>2015-04-29T09:35:24Z</time>
</trkpt>
<trkpt lat="34.9082775" lon="32.8290298">
<ele>1187.4</ele>
<time>2015-04-29T09:35:32Z</time>
</trkpt>
<trkpt lat="34.9075132" lon="32.8299233">
<ele>1174.4</ele>
<time>2015-04-29T09:35:53Z</time>
</trkpt>
<trkpt lat="34.9074280" lon="32.8304150">
<ele>1182.1</ele>
<time>2015-04-29T09:36:03Z</time>
</trkpt>
<trkpt lat="34.9065030" lon="32.8304941">
<ele>1175.0</ele>
<time>2015-04-29T09:36:23Z</time>
</trkpt>
<trkpt lat="34.9055561" lon="32.8297256">
<ele>1146.4</ele>
<time>2015-04-29T09:36:41Z</time>
</trkpt>
<trkpt lat="34.9052330" lon="32.8303947">
<ele>1146.8</ele>
<time>2015-04-29T09:36:53Z</time>
</trkpt>
<trkpt lat="34.9045898" lon="32.8307288">
<ele>1133.8</ele>
<time>2015-04-29T09:37:04Z</time>
</trkpt>
<trkpt lat="34.9040244" lon="32.8318569">
<ele>1120.4</ele>
<time>2015-04-29T09:37:22Z</time>
</trkpt>
<trkpt lat="34.9044427" lon="32.8330696">
<ele>1116.9</ele>
<time>2015-04-29T09:37:42Z</time>
</trkpt>
<trkpt lat="34.9045780" lon="32.8337855">
<ele>1117.4</ele>
<time>2015-04-29T09:37:55Z</time>
</trkpt>
<trkpt lat="34.9045001" lon="32.8342357">
<ele>1128.9</ele>
<time>2015-04-29T09:38:07Z</time>
</trkpt>
<trkpt lat="34.9044415" lon="32.8330110">
<ele>1118.0</ele>
<time>2015-04-29T09:46:08Z</time>
</trkpt>
<trkpt lat="34.9042779" lon="32.8328456">
<ele>1112.6</ele>
<time>2015-04-29T09:46:17Z</time>
</trkpt>
<trkpt lat="34.9040708" lon="32.8318765">
<ele>1123.0</ele>
<time>2015-04-29T09:46:57Z</time>
</trkpt>
<trkpt lat="34.9041629" lon="32.8315567">
<ele>1129.1</ele>
<time>2015-04-29T09:47:12Z</time>
</trkpt>
<trkpt lat="34.9044461" lon="32.8312805">
<ele>1138.5</ele>
<time>2015-04-29T09:47:27Z</time>
</trkpt>
<trkpt lat="34.9046144" lon="32.8306774">
<ele>1134.4</ele>
<time>2015-04-29T09:47:48Z</time>
</trkpt>
<trkpt lat="34.9052978" lon="32.8303571">
<ele>1147.7</ele>
<time>2015-04-29T09:48:23Z</time>
</trkpt>
<trkpt lat="34.9055583" lon="32.8295625">
<ele>1145.4</ele>
<time>2015-04-29T09:49:08Z</time>
</trkpt>
<trkpt lat="34.9058998" lon="32.8298323">
<ele>1156.0</ele>
<time>2015-04-29T09:52:36Z</time>
</trkpt>
<trkpt lat="34.9064901" lon="32.8297603">
<ele>1148.3</ele>
<time>2015-04-29T09:52:49Z</time>
</trkpt>
<trkpt lat="34.9066391" lon="32.8293213">
<ele>1137.8</ele>
<time>2015-04-29T09:52:58Z</time>
</trkpt>
<trkpt lat="34.9065271" lon="32.8288329">
<ele>1130.2</ele>
<time>2015-04-29T09:53:06Z</time>
</trkpt>
<trkpt lat="34.9069462" lon="32.8283769">
<ele>1128.3</ele>
<time>2015-04-29T09:53:17Z</time>
</trkpt>
<trkpt lat="34.9067874" lon="32.8281285">
<ele>1117.6</ele>
<time>2015-04-29T09:53:23Z</time>
</trkpt>
<trkpt lat="34.9068872" lon="32.8278370">
<ele>1118.7</ele>
<time>2015-04-29T09:53:30Z</time>
</trkpt>
<trkpt lat="34.9063550" lon="32.8270353">
<ele>1097.1</ele>
<time>2015-04-29T09:53:45Z</time>
</trkpt>
<trkpt lat="34.9063181" lon="32.8263813">
<ele>1098.1</ele>
<time>2015-04-29T09:53:55Z</time>
</trkpt>
<trkpt lat="34.9060262" lon="32.8257712">
<ele>1094.5</ele>
<time>2015-04-29T09:54:04Z</time>
</trkpt>
<trkpt lat="34.9050726" lon="32.8255196">
<ele>1076.2</ele>
<time>2015-04-29T09:54:36Z</time>
</trkpt>
<trkpt lat="34.9045581" lon="32.8251648">
<ele>1076.1</ele>
<time>2015-04-29T09:54:50Z</time>
</trkpt>
<trkpt lat="34.9049983" lon="32.8241730">
<ele>1073.2</ele>
<time>2015-04-29T09:55:09Z</time>
</trkpt>
<trkpt lat="34.9049846" lon="32.8238857">
<ele>1067.0</ele>
<time>2015-04-29T09:55:14Z</time>
</trkpt>
<trkpt lat="34.9047951" lon="32.8237466">
<ele>1056.4</ele>
<time>2015-04-29T09:55:20Z</time>
</trkpt>
<trkpt lat="34.9048425" lon="32.8233893">
<ele>1062.2</ele>
<time>2015-04-29T09:55:27Z</time>
</trkpt>
<trkpt lat="34.9041880" lon="32.8232657">
<ele>1042.7</ele>
<time>2015-04-29T09:55:41Z</time>
</trkpt>
<trkpt lat="34.9037972" lon="32.8227848">
<ele>1033.9</ele>
<time>2015-04-29T09:55:53Z</time>
</trkpt>
<trkpt lat="34.9043525" lon="32.8237912">
<ele>1034.5</ele>
<time>2015-04-29T09:56:36Z</time>
</trkpt>
<trkpt lat="34.9043440" lon="32.8240617">
<ele>1037.1</ele>
<time>2015-04-29T09:56:40Z</time>
</trkpt>
<trkpt lat="34.9037166" lon="32.8249410">
<ele>1020.4</ele>
<time>2015-04-29T09:56:57Z</time>
</trkpt>
<trkpt lat="34.9035218" lon="32.8258126">
<ele>1007.7</ele>
<time>2015-04-29T09:57:17Z</time>
</trkpt>
<trkpt lat="34.9034173" lon="32.8246204">
<ele>1000.8</ele>
<time>2015-04-29T09:57:39Z</time>
</trkpt>
<trkpt lat="34.9032925" lon="32.8245225">
<ele>997.8</ele>
<time>2015-04-29T09:57:44Z</time>
</trkpt>
<trkpt lat="34.9028345" lon="32.8258156">
<ele>978.8</ele>
<time>2015-04-29T09:58:10Z</time>
</trkpt>
<trkpt lat="34.9031114" lon="32.8266877">
<ele>982.9</ele>
<time>2015-04-29T09:58:24Z</time>
</trkpt>
<trkpt lat="34.9017519" lon="32.8275081">
<ele>961.0</ele>
<time>2015-04-29T09:58:49Z</time>
</trkpt>
<trkpt lat="34.9015989" lon="32.8279184">
<ele>965.1</ele>
<time>2015-04-29T09:58:58Z</time>
</trkpt>
<trkpt lat="34.9008716" lon="32.8274207">
<ele>949.0</ele>
<time>2015-04-29T09:59:14Z</time>
</trkpt>
<trkpt lat="34.9001966" lon="32.8277147">
<ele>949.1</ele>
<time>2015-04-29T09:59:27Z</time>
</trkpt>
<trkpt lat="34.8996132" lon="32.8269936">
<ele>929.1</ele>
<time>2015-04-29T09:59:44Z</time>
</trkpt>
<trkpt lat="34.8991684" lon="32.8273088">
<ele>931.8</ele>
<time>2015-04-29T09:59:55Z</time>
</trkpt>
<trkpt lat="34.8988394" lon="32.8270927">
<ele>931.8</ele>
<time>2015-04-29T10:00:06Z</time>
</trkpt>
<trkpt lat="34.8984726" lon="32.8265023">
<ele>917.4</ele>
<time>2015-04-29T10:00:14Z</time>
</trkpt>
<trkpt lat="34.8980715" lon="32.8263729">
<ele>906.7</ele>
<time>2015-04-29T10:00:20Z</time>
</trkpt>
<trkpt lat="34.8979144" lon="32.8265342">
<ele>900.4</ele>
<time>2015-04-29T10:00:24Z</time>
</trkpt>
<trkpt lat="34.8978857" lon="32.8270684">
<ele>904.4</ele>
<time>2015-04-29T10:00:31Z</time>
</trkpt>
<trkpt lat="34.8975629" lon="32.8274792">
<ele>900.2</ele>
<time>2015-04-29T10:00:39Z</time>
</trkpt>
<trkpt lat="34.8975796" lon="32.8279477">
<ele>902.1</ele>
<time>2015-04-29T10:00:46Z</time>
</trkpt>
<trkpt lat="34.8968624" lon="32.8279235">
<ele>902.5</ele>
<time>2015-04-29T10:01:06Z</time>
</trkpt>
<trkpt lat="34.8966618" lon="32.8284337">
<ele>899.9</ele>
<time>2015-04-29T10:01:19Z</time>
</trkpt>
<trkpt lat="34.8960827" lon="32.8282267">
<ele>894.3</ele>
<time>2015-04-29T10:01:34Z</time>
</trkpt>
<trkpt lat="34.8953732" lon="32.8286732">
<ele>890.9</ele>
<time>2015-04-29T10:01:56Z</time>
</trkpt>
<trkpt lat="34.8952258" lon="32.8297633">
<ele>890.3</ele>
<time>2015-04-29T10:02:15Z</time>
</trkpt>
<trkpt lat="34.8949017" lon="32.8303265">
<ele>888.2</ele>
<time>2015-04-29T10:02:26Z</time>
</trkpt>
<trkpt lat="34.8947215" lon="32.8303648">
<ele>881.6</ele>
<time>2015-04-29T10:02:38Z</time>
</trkpt>
<trkpt lat="34.8945664" lon="32.8308130">
<ele>882.8</ele>
<time>2015-04-29T10:03:04Z</time>
</trkpt>
<trkpt lat="34.8943275" lon="32.8319311">
<ele>887.9</ele>
<time>2015-04-29T10:03:32Z</time>
</trkpt>
<trkpt lat="34.8944259" lon="32.8327368">
<ele>897.7</ele>
<time>2015-04-29T10:03:58Z</time>
</trkpt>
<trkpt lat="34.8941483" lon="32.8332507">
<ele>902.8</ele>
<time>2015-04-29T10:04:24Z</time>
</trkpt>
<trkpt lat="34.8934283" lon="32.8332664">
<ele>898.8</ele>
<time>2015-04-29T10:04:48Z</time>
</trkpt>
<trkpt lat="34.8932369" lon="32.8345025">
<ele>895.9</ele>
<time>2015-04-29T10:05:18Z</time>
</trkpt>
<trkpt lat="34.8934060" lon="32.8348630">
<ele>896.9</ele>
<time>2015-04-29T10:05:28Z</time>
</trkpt>
<trkpt lat="34.8939051" lon="32.8351540">
<ele>899.2</ele>
<time>2015-04-29T10:05:38Z</time>
</trkpt>
<trkpt lat="34.8942853" lon="32.8356677">
<ele>898.3</ele>
<time>2015-04-29T10:05:47Z</time>
</trkpt>
<trkpt lat="34.8947370" lon="32.8359010">
<ele>898.5</ele>
<time>2015-04-29T10:05:55Z</time>
</trkpt>
<trkpt lat="34.8952392" lon="32.8358054">
<ele>900.4</ele>
<time>2015-04-29T10:06:05Z</time>
</trkpt>
<trkpt lat="34.8952810" lon="32.8360269">
<ele>902.5</ele>
<time>2015-04-29T10:06:13Z</time>
</trkpt>
<trkpt lat="34.8949812" lon="32.8363587">
<ele>911.8</ele>
<time>2015-04-29T10:27:00Z</time>
</trkpt>
<trkpt lat="34.8952288" lon="32.8358733">
<ele>900.4</ele>
<time>2015-04-29T10:29:40Z</time>
</trkpt>
<trkpt lat="34.8956186" lon="32.8361859">
<ele>909.4</ele>
<time>2015-04-29T10:35:34Z</time>
</trkpt>
<trkpt lat="34.8952089" lon="32.8360588">
<ele>903.0</ele>
<time>2015-04-29T10:44:34Z</time>
</trkpt>
<trkpt lat="34.8949006" lon="32.8364730">
<ele>915.1</ele>
<time>2015-04-29T10:46:55Z</time>
</trkpt>
<trkpt lat="34.8939375" lon="32.8364664">
<ele>908.2</ele>
<time>2015-04-29T10:48:03Z</time>
</trkpt>
<trkpt lat="34.8941337" lon="32.8372966">
<ele>913.1</ele>
<time>2015-04-29T10:48:49Z</time>
</trkpt>
<trkpt lat="34.8939566" lon="32.8374361">
<ele>915.7</ele>
<time>2015-04-29T10:48:57Z</time>
</trkpt>
<trkpt lat="34.8935258" lon="32.8373354">
<ele>914.5</ele>
<time>2015-04-29T10:49:10Z</time>
</trkpt>
<trkpt lat="34.8927929" lon="32.8360821">
<ele>910.2</ele>
<time>2015-04-29T10:49:49Z</time>
</trkpt>
<trkpt lat="34.8925258" lon="32.8360924">
<ele>907.1</ele>
<time>2015-04-29T10:49:57Z</time>
</trkpt>
<trkpt lat="34.8924317" lon="32.8363541">
<ele>908.8</ele>
<time>2015-04-29T10:50:05Z</time>
</trkpt>
<trkpt lat="34.8926147" lon="32.8369115">
<ele>917.9</ele>
<time>2015-04-29T10:50:35Z</time>
</trkpt>
<trkpt lat="34.8924564" lon="32.8370974">
<ele>922.6</ele>
<time>2015-04-29T10:50:58Z</time>
</trkpt>
<trkpt lat="34.8926493" lon="32.8371234">
<ele>923.0</ele>
<time>2015-04-29T10:51:37Z</time>
</trkpt>
<trkpt lat="34.8923000" lon="32.8370567">
<ele>920.1</ele>
<time>2015-04-29T10:52:19Z</time>
</trkpt>
<trkpt lat="34.8921578" lon="32.8373942">
<ele>917.5</ele>
<time>2015-04-29T10:52:37Z</time>
</trkpt>
<trkpt lat="34.8921885" lon="32.8384866">
<ele>932.9</ele>
<time>2015-04-29T10:53:25Z</time>
</trkpt>
<trkpt lat="34.8923081" lon="32.8381365">
<ele>927.1</ele>
<time>2015-04-29T10:54:35Z</time>
</trkpt>
<trkpt lat="34.8924078" lon="32.8385312">
<ele>933.4</ele>
<time>2015-04-29T10:55:00Z</time>
</trkpt>
<trkpt lat="34.8922342" lon="32.8392072">
<ele>945.9</ele>
<time>2015-04-29T10:55:37Z</time>
</trkpt>
<trkpt lat="34.8918915" lon="32.8391968">
<ele>948.7</ele>
<time>2015-04-29T10:55:59Z</time>
</trkpt>
<trkpt lat="34.8914395" lon="32.8384257">
<ele>949.6</ele>
<time>2015-04-29T10:56:45Z</time>
</trkpt>
<trkpt lat="34.8908034" lon="32.8389074">
<ele>959.8</ele>
<time>2015-04-29T10:57:31Z</time>
</trkpt>
<trkpt lat="34.8904360" lon="32.8389577">
<ele>959.4</ele>
<time>2015-04-29T10:57:49Z</time>
</trkpt>
<trkpt lat="34.8901966" lon="32.8392723">
<ele>966.3</ele>
<time>2015-04-29T10:58:10Z</time>
</trkpt>
<trkpt lat="34.8891155" lon="32.8388906">
<ele>981.8</ele>
<time>2015-04-29T10:59:23Z</time>
</trkpt>
<trkpt lat="34.8888058" lon="32.8389596">
<ele>983.9</ele>
<time>2015-04-29T10:59:44Z</time>
</trkpt>
<trkpt lat="34.8883270" lon="32.8394199">
<ele>986.0</ele>
<time>2015-04-29T11:00:30Z</time>
</trkpt>
<trkpt lat="34.8873002" lon="32.8392521">
<ele>978.4</ele>
<time>2015-04-29T11:01:11Z</time>
</trkpt>
<trkpt lat="34.8858504" lon="32.8398308">
<ele>971.5</ele>
<time>2015-04-29T11:01:33Z</time>
</trkpt>
<trkpt lat="34.8844530" lon="32.8401348">
<ele>960.1</ele>
<time>2015-04-29T11:01:48Z</time>
</trkpt>
<trkpt lat="34.8832936" lon="32.8411915">
<ele>944.3</ele>
<time>2015-04-29T11:02:01Z</time>
</trkpt>
<trkpt lat="34.8811161" lon="32.8412234">
<ele>930.5</ele>
<time>2015-04-29T11:02:24Z</time>
</trkpt>
<trkpt lat="34.8804265" lon="32.8416622">
<ele>928.8</ele>
<time>2015-04-29T11:02:43Z</time>
</trkpt>
<trkpt lat="34.8801866" lon="32.8415825">
<ele>922.7</ele>
<time>2015-04-29T11:02:52Z</time>
</trkpt>
<trkpt lat="34.8798913" lon="32.8418705">
<ele>916.5</ele>
<time>2015-04-29T11:03:02Z</time>
</trkpt>
<trkpt lat="34.8798804" lon="32.8426514">
<ele>920.9</ele>
<time>2015-04-29T11:17:20Z</time>
</trkpt>
<trkpt lat="34.8805161" lon="32.8439961">
<ele>931.3</ele>
<time>2015-04-29T11:18:29Z</time>
</trkpt>
<trkpt lat="34.8805811" lon="32.8451637">
<ele>938.2</ele>
<time>2015-04-29T11:19:20Z</time>
</trkpt>
<trkpt lat="34.8810446" lon="32.8463133">
<ele>944.2</ele>
<time>2015-04-29T11:20:20Z</time>
</trkpt>
<trkpt lat="34.8811332" lon="32.8498580">
<ele>966.2</ele>
<time>2015-04-29T11:23:07Z</time>
</trkpt>
<trkpt lat="34.8813610" lon="32.8511748">
<ele>975.4</ele>
<time>2015-04-29T11:24:07Z</time>
</trkpt>
<trkpt lat="34.8807457" lon="32.8539772">
<ele>988.7</ele>
<time>2015-04-29T11:25:42Z</time>
</trkpt>
<trkpt lat="34.8819789" lon="32.8560079">
<ele>1005.2</ele>
<time>2015-04-29T11:27:23Z</time>
</trkpt>
<trkpt lat="34.8819803" lon="32.8574390">
<ele>1011.7</ele>
<time>2015-04-29T11:28:10Z</time>
</trkpt>
<trkpt lat="34.8815690" lon="32.8587236">
<ele>1020.2</ele>
<time>2015-04-29T11:28:50Z</time>
</trkpt>
<trkpt lat="34.8816623" lon="32.8592408">
<ele>1022.1</ele>
<time>2015-04-29T11:29:11Z</time>
</trkpt>
<trkpt lat="34.8825609" lon="32.8599754">
<ele>1028.2</ele>
<time>2015-04-29T11:30:21Z</time>
</trkpt>
<trkpt lat="34.8834590" lon="32.8596685">
<ele>1033.1</ele>
<time>2015-04-29T11:31:06Z</time>
</trkpt>
<trkpt lat="34.8837362" lon="32.8605464">
<ele>1038.8</ele>
<time>2015-04-29T11:32:43Z</time>
</trkpt>
<trkpt lat="34.8848913" lon="32.8621737">
<ele>1056.4</ele>
<time>2015-04-29T11:34:49Z</time>
</trkpt>
<trkpt lat="34.8850090" lon="32.8630562">
<ele>1059.5</ele>
<time>2015-04-29T11:35:45Z</time>
</trkpt>
<trkpt lat="34.8848995" lon="32.8634268">
<ele>1051.5</ele>
<time>2015-04-29T11:35:59Z</time>
</trkpt>
<trkpt lat="34.8862092" lon="32.8638582">
<ele>1067.0</ele>
<time>2015-04-29T11:37:28Z</time>
</trkpt>
<trkpt lat="34.8877580" lon="32.8640564">
<ele>1087.3</ele>
<time>2015-04-29T11:39:22Z</time>
</trkpt>
<trkpt lat="34.8881975" lon="32.8644237">
<ele>1093.0</ele>
<time>2015-04-29T11:39:58Z</time>
</trkpt>
<trkpt lat="34.8886699" lon="32.8645483">
<ele>1101.6</ele>
<time>2015-04-29T11:41:03Z</time>
</trkpt>
<trkpt lat="34.8890312" lon="32.8651532">
<ele>1106.1</ele>
<time>2015-04-29T11:43:07Z</time>
</trkpt>
<trkpt lat="34.8899837" lon="32.8658230">
<ele>1116.8</ele>
<time>2015-04-29T11:45:52Z</time>
</trkpt>
<trkpt lat="34.8897462" lon="32.8657368">
<ele>1112.5</ele>
<time>2015-04-29T11:54:07Z</time>
</trkpt>
<trkpt lat="34.8923880" lon="32.8674584">
<ele>1137.3</ele>
<time>2015-04-29T11:59:49Z</time>
</trkpt>
<trkpt lat="34.8924848" lon="32.8674462">
<ele>1140.2</ele>
<time>2015-04-29T11:59:59Z</time>
</trkpt>
<trkpt lat="34.8920309" lon="32.8671716">
<ele>1133.0</ele>
<time>2015-04-29T12:00:26Z</time>
</trkpt>
<trkpt lat="34.8919356" lon="32.8668718">
<ele>1136.0</ele>
<time>2015-04-29T12:00:32Z</time>
</trkpt>
<trkpt lat="34.8925839" lon="32.8658106">
<ele>1159.0</ele>
<time>2015-04-29T12:01:51Z</time>
</trkpt>
<trkpt lat="34.8926703" lon="32.8659701">
<ele>1157.4</ele>
<time>2015-04-29T12:01:57Z</time>
</trkpt>
<trkpt lat="34.8923393" lon="32.8666415">
<ele>1155.7</ele>
<time>2015-04-29T12:02:34Z</time>
</trkpt>
<trkpt lat="34.8924285" lon="32.8668952">
<ele>1154.2</ele>
<time>2015-04-29T12:02:49Z</time>
</trkpt>
<trkpt lat="34.8947232" lon="32.8674004">
<ele>1178.7</ele>
<time>2015-04-29T12:04:30Z</time>
</trkpt>
<trkpt lat="34.8956944" lon="32.8686191">
<ele>1193.9</ele>
<time>2015-04-29T12:06:23Z</time>
</trkpt>
<trkpt lat="34.8959403" lon="32.8691974">
<ele>1203.9</ele>
<time>2015-04-29T12:07:10Z</time>
</trkpt>
<trkpt lat="34.8957958" lon="32.8688761">
<ele>1195.1</ele>
<time>2015-04-29T12:12:38Z</time>
</trkpt>
<trkpt lat="34.8958402" lon="32.8685075">
<ele>1196.9</ele>
<time>2015-04-29T12:12:50Z</time>
</trkpt>
<trkpt lat="34.8968928" lon="32.8687754">
<ele>1197.9</ele>
<time>2015-04-29T12:14:33Z</time>
</trkpt>
<trkpt lat="34.8959523" lon="32.8685189">
<ele>1199.2</ele>
<time>2015-04-29T12:15:17Z</time>
</trkpt>
<trkpt lat="34.8957705" lon="32.8687957">
<ele>1194.6</ele>
<time>2015-04-29T12:15:25Z</time>
</trkpt>
<trkpt lat="34.8959838" lon="32.8691444">
<ele>1202.9</ele>
<time>2015-04-29T12:15:35Z</time>
</trkpt>
<trkpt lat="34.8951519" lon="32.8696673">
<ele>1214.9</ele>
<time>2015-04-29T12:19:28Z</time>
</trkpt>
<trkpt lat="34.8942578" lon="32.8690263">
<ele>1219.7</ele>
<time>2015-04-29T12:20:20Z</time>
</trkpt>
<trkpt lat="34.8939058" lon="32.8691059">
<ele>1217.6</ele>
<time>2015-04-29T12:20:34Z</time>
</trkpt>
<trkpt lat="34.8927048" lon="32.8705937">
<ele>1222.8</ele>
<time>2015-04-29T12:21:22Z</time>
</trkpt>
<trkpt lat="34.8920976" lon="32.8705213">
<ele>1217.7</ele>
<time>2015-04-29T12:21:41Z</time>
</trkpt>
<trkpt lat="34.8919440" lon="32.8709154">
<ele>1211.8</ele>
<time>2015-04-29T12:21:53Z</time>
</trkpt>
<trkpt lat="34.8920165" lon="32.8718193">
<ele>1216.6</ele>
<time>2015-04-29T12:22:09Z</time>
</trkpt>
<trkpt lat="34.8911824" lon="32.8717047">
<ele>1207.6</ele>
<time>2015-04-29T12:22:27Z</time>
</trkpt>
<trkpt lat="34.8907768" lon="32.8718901">
<ele>1201.2</ele>
<time>2015-04-29T12:22:40Z</time>
</trkpt>
<trkpt lat="34.8910855" lon="32.8727845">
<ele>1208.8</ele>
<time>2015-04-29T12:23:32Z</time>
</trkpt>
<trkpt lat="34.8906841" lon="32.8743737">
<ele>1194.0</ele>
<time>2015-04-29T12:23:57Z</time>
</trkpt>
<trkpt lat="34.8910479" lon="32.8751448">
<ele>1206.7</ele>
<time>2015-04-29T12:24:13Z</time>
</trkpt>
<trkpt lat="34.8902465" lon="32.8754270">
<ele>1198.6</ele>
<time>2015-04-29T12:24:33Z</time>
</trkpt>
<trkpt lat="34.8899777" lon="32.8761633">
<ele>1201.8</ele>
<time>2015-04-29T12:24:53Z</time>
</trkpt>
<trkpt lat="34.8893732" lon="32.8765438">
<ele>1190.3</ele>
<time>2015-04-29T12:25:07Z</time>
</trkpt>
<trkpt lat="34.8893896" lon="32.8767499">
<ele>1183.0</ele>
<time>2015-04-29T12:25:19Z</time>
</trkpt>
<trkpt lat="34.8900794" lon="32.8770100">
<ele>1194.0</ele>
<time>2015-04-29T12:25:43Z</time>
</trkpt>
<trkpt lat="34.8902020" lon="32.8773506">
<ele>1190.1</ele>
<time>2015-04-29T12:25:49Z</time>
</trkpt>
<trkpt lat="34.8900036" lon="32.8778457">
<ele>1182.5</ele>
<time>2015-04-29T12:25:57Z</time>
</trkpt>
<trkpt lat="34.8900373" lon="32.8792089">
<ele>1175.1</ele>
<time>2015-04-29T12:26:14Z</time>
</trkpt>
<trkpt lat="34.8907040" lon="32.8800120">
<ele>1179.3</ele>
<time>2015-04-29T12:26:31Z</time>
</trkpt>
<trkpt lat="34.8903951" lon="32.8814294">
<ele>1159.0</ele>
<time>2015-04-29T12:26:50Z</time>
</trkpt>
<trkpt lat="34.8904527" lon="32.8809859">
<ele>1166.3</ele>
<time>2015-04-29T12:27:37Z</time>
</trkpt>
<trkpt lat="34.8903813" lon="32.8812366">
<ele>1161.7</ele>
<time>2015-04-29T12:27:48Z</time>
</trkpt>
<trkpt lat="34.8904356" lon="32.8815710">
<ele>1157.5</ele>
<time>2015-04-29T12:27:53Z</time>
</trkpt>
<trkpt lat="34.8911195" lon="32.8820055">
<ele>1160.5</ele>
<time>2015-04-29T12:31:41Z</time>
</trkpt>
<trkpt lat="34.8926323" lon="32.8818990">
<ele>1159.7</ele>
<time>2015-04-29T12:32:07Z</time>
</trkpt>
<trkpt lat="34.8927661" lon="32.8820709">
<ele>1157.7</ele>
<time>2015-04-29T12:32:11Z</time>
</trkpt>
<trkpt lat="34.8927476" lon="32.8824032">
<ele>1156.6</ele>
<time>2015-04-29T12:32:18Z</time>
</trkpt>
<trkpt lat="34.8925488" lon="32.8831674">
<ele>1154.6</ele>
<time>2015-04-29T12:32:39Z</time>
</trkpt>
<trkpt lat="34.8930498" lon="32.8836282">
<ele>1164.0</ele>
<time>2015-04-29T12:33:17Z</time>
</trkpt>
<trkpt lat="34.8920922" lon="32.8851110">
<ele>1155.8</ele>
<time>2015-04-29T12:37:54Z</time>
</trkpt>
<trkpt lat="34.8920087" lon="32.8856508">
<ele>1153.8</ele>
<time>2015-04-29T12:38:05Z</time>
</trkpt>
<trkpt lat="34.8922157" lon="32.8861704">
<ele>1160.2</ele>
<time>2015-04-29T12:39:12Z</time>
</trkpt>
<trkpt lat="34.8919438" lon="32.8867659">
<ele>1167.8</ele>
<time>2015-04-29T12:39:28Z</time>
</trkpt>
<trkpt lat="34.8917338" lon="32.8868975">
<ele>1170.3</ele>
<time>2015-04-29T12:39:36Z</time>
</trkpt>
<trkpt lat="34.8912095" lon="32.8866897">
<ele>1159.1</ele>
<time>2015-04-29T12:39:52Z</time>
</trkpt>
<trkpt lat="34.8908867" lon="32.8867522">
<ele>1153.0</ele>
<time>2015-04-29T12:39:59Z</time>
</trkpt>
<trkpt lat="34.8911294" lon="32.8877110">
<ele>1164.3</ele>
<time>2015-04-29T12:40:20Z</time>
</trkpt>
<trkpt lat="34.8906195" lon="32.8883323">
<ele>1154.7</ele>
<time>2015-04-29T12:40:36Z</time>
</trkpt>
<trkpt lat="34.8906682" lon="32.8887754">
<ele>1157.2</ele>
<time>2015-04-29T12:40:44Z</time>
</trkpt>
<trkpt lat="34.8903508" lon="32.8894069">
<ele>1155.2</ele>
<time>2015-04-29T12:40:57Z</time>
</trkpt>
<trkpt lat="34.8903372" lon="32.8897314">
<ele>1151.8</ele>
<time>2015-04-29T12:41:03Z</time>
</trkpt>
<trkpt lat="34.8906632" lon="32.8901192">
<ele>1154.3</ele>
<time>2015-04-29T12:41:11Z</time>
</trkpt>
<trkpt lat="34.8907910" lon="32.8906747">
<ele>1153.0</ele>
<time>2015-04-29T12:41:22Z</time>
</trkpt>
<trkpt lat="34.8911020" lon="32.8908766">
<ele>1150.8</ele>
<time>2015-04-29T12:41:33Z</time>
</trkpt>
<trkpt lat="34.8919512" lon="32.8910427">
<ele>1155.0</ele>
<time>2015-04-29T12:41:51Z</time>
</trkpt>
<trkpt lat="34.8924672" lon="32.8914533">
<ele>1152.9</ele>
<time>2015-04-29T12:42:07Z</time>
</trkpt>
<trkpt lat="34.8938837" lon="32.8914461">
<ele>1155.2</ele>
<time>2015-04-29T12:42:41Z</time>
</trkpt>
<trkpt lat="34.8941071" lon="32.8918622">
<ele>1156.5</ele>
<time>2015-04-29T12:42:53Z</time>
</trkpt>
<trkpt lat="34.8942436" lon="32.8927449">
<ele>1152.4</ele>
<time>2015-04-29T12:43:08Z</time>
</trkpt>
<trkpt lat="34.8941121" lon="32.8931950">
<ele>1153.4</ele>
<time>2015-04-29T12:43:16Z</time>
</trkpt>
<trkpt lat="34.8936166" lon="32.8937800">
<ele>1146.3</ele>
<time>2015-04-29T12:43:35Z</time>
</trkpt>
<trkpt lat="34.8935862" lon="32.8940944">
<ele>1143.3</ele>
<time>2015-04-29T12:43:40Z</time>
</trkpt>
<trkpt lat="34.8942508" lon="32.8946621">
<ele>1147.7</ele>
<time>2015-04-29T12:43:56Z</time>
</trkpt>
<trkpt lat="34.8940165" lon="32.8957520">
<ele>1146.0</ele>
<time>2015-04-29T12:44:15Z</time>
</trkpt>
<trkpt lat="34.8936338" lon="32.8963726">
<ele>1137.1</ele>
<time>2015-04-29T12:44:25Z</time>
</trkpt>
<trkpt lat="34.8935028" lon="32.8970338">
<ele>1138.8</ele>
<time>2015-04-29T12:44:33Z</time>
</trkpt>
<trkpt lat="34.8929067" lon="32.8976167">
<ele>1133.1</ele>
<time>2015-04-29T12:44:46Z</time>
</trkpt>
<trkpt lat="34.8932274" lon="32.8980116">
<ele>1133.0</ele>
<time>2015-04-29T12:44:56Z</time>
</trkpt>
<trkpt lat="34.8934091" lon="32.8987272">
<ele>1131.5</ele>
<time>2015-04-29T12:45:08Z</time>
</trkpt>
<trkpt lat="34.8929406" lon="32.8994692">
<ele>1124.5</ele>
<time>2015-04-29T12:45:26Z</time>
</trkpt>
<trkpt lat="34.8931765" lon="32.9000722">
<ele>1129.8</ele>
<time>2015-04-29T12:45:38Z</time>
</trkpt>
<trkpt lat="34.8930480" lon="32.9004569">
<ele>1131.9</ele>
<time>2015-04-29T12:45:45Z</time>
</trkpt>
<trkpt lat="34.8916540" lon="32.9014106">
<ele>1115.1</ele>
<time>2015-04-29T12:46:20Z</time>
</trkpt>
<trkpt lat="34.8915371" lon="32.9020250">
<ele>1115.9</ele>
<time>2015-04-29T12:46:40Z</time>
</trkpt>
<trkpt lat="34.8910757" lon="32.9029780">
<ele>1114.3</ele>
<time>2015-04-29T12:47:00Z</time>
</trkpt>
<trkpt lat="34.8901115" lon="32.9034479">
<ele>1107.1</ele>
<time>2015-04-29T12:47:14Z</time>
</trkpt>
<trkpt lat="34.8893535" lon="32.9035242">
<ele>1098.9</ele>
<time>2015-04-29T12:47:24Z</time>
</trkpt>
<trkpt lat="34.8886748" lon="32.9041320">
<ele>1082.1</ele>
<time>2015-04-29T12:49:37Z</time>
</trkpt>
<trkpt lat="34.8892390" lon="32.9050717">
<ele>1077.7</ele>
<time>2015-04-29T12:50:34Z</time>
</trkpt>
<trkpt lat="34.8896771" lon="32.9046747">
<ele>1084.3</ele>
<time>2015-04-29T12:50:42Z</time>
</trkpt>
<trkpt lat="34.8905532" lon="32.9049270">
<ele>1072.9</ele>
<time>2015-04-29T12:50:53Z</time>
</trkpt>
<trkpt lat="34.8908029" lon="32.9059826">
<ele>1062.9</ele>
<time>2015-04-29T12:51:05Z</time>
</trkpt>
<trkpt lat="34.8909900" lon="32.9062241">
<ele>1059.1</ele>
<time>2015-04-29T12:51:08Z</time>
</trkpt>
<trkpt lat="34.8912716" lon="32.9062079">
<ele>1058.0</ele>
<time>2015-04-29T12:51:11Z</time>
</trkpt>
<trkpt lat="34.8918294" lon="32.9058068">
<ele>1056.0</ele>
<time>2015-04-29T12:51:17Z</time>
</trkpt>
<trkpt lat="34.8920110" lon="32.9049740">
<ele>1058.5</ele>
<time>2015-04-29T12:51:25Z</time>
</trkpt>
<trkpt lat="34.8922398" lon="32.9047706">
<ele>1049.1</ele>
<time>2015-04-29T12:51:29Z</time>
</trkpt>
<trkpt lat="34.8941173" lon="32.9049524">
<ele>1035.5</ele>
<time>2015-04-29T12:51:48Z</time>
</trkpt>
<trkpt lat="34.8950498" lon="32.9053455">
<ele>1037.9</ele>
<time>2015-04-29T12:53:10Z</time>
</trkpt>
<trkpt lat="34.8949337" lon="32.9057578">
<ele>1037.7</ele>
<time>2015-04-29T12:53:25Z</time>
</trkpt>
<trkpt lat="34.8943818" lon="32.9061103">
<ele>1031.7</ele>
<time>2015-04-29T12:53:44Z</time>
</trkpt>
<trkpt lat="34.8940745" lon="32.9066310">
<ele>1032.6</ele>
<time>2015-04-29T12:53:58Z</time>
</trkpt>
<trkpt lat="34.8946737" lon="32.9071163">
<ele>1031.3</ele>
<time>2015-04-29T12:54:18Z</time>
</trkpt>
<trkpt lat="34.8948555" lon="32.9077282">
<ele>1036.9</ele>
<time>2015-04-29T12:54:32Z</time>
</trkpt>
<trkpt lat="34.8947205" lon="32.9083488">
<ele>1034.3</ele>
<time>2015-04-29T12:54:48Z</time>
</trkpt>
<trkpt lat="34.8955642" lon="32.9091118">
<ele>1044.1</ele>
<time>2015-04-29T12:55:10Z</time>
</trkpt>
<trkpt lat="34.8955269" lon="32.9097622">
<ele>1032.8</ele>
<time>2015-04-29T12:55:30Z</time>
</trkpt>
<trkpt lat="34.8956592" lon="32.9101506">
<ele>1042.3</ele>
<time>2015-04-29T12:55:56Z</time>
</trkpt>
<trkpt lat="34.8950284" lon="32.9105942">
<ele>1040.3</ele>
<time>2015-04-29T12:56:19Z</time>
</trkpt>
<trkpt lat="34.8945835" lon="32.9114049">
<ele>1047.1</ele>
<time>2015-04-29T12:56:48Z</time>
</trkpt>
<trkpt lat="34.8932733" lon="32.9114495">
<ele>1042.9</ele>
<time>2015-04-29T12:57:54Z</time>
</trkpt>
<trkpt lat="34.8932730" lon="32.9116583">
<ele>1042.1</ele>
<time>2015-04-29T12:58:00Z</time>
</trkpt>
<trkpt lat="34.8936276" lon="32.9120052">
<ele>1051.8</ele>
<time>2015-04-29T12:58:14Z</time>
</trkpt>
<trkpt lat="34.8936628" lon="32.9129366">
<ele>1060.7</ele>
<time>2015-04-29T12:58:37Z</time>
</trkpt>
<trkpt lat="34.8934222" lon="32.9132450">
<ele>1068.2</ele>
<time>2015-04-29T12:58:49Z</time>
</trkpt>
<trkpt lat="34.8928909" lon="32.9132776">
<ele>1061.7</ele>
<time>2015-04-29T12:59:14Z</time>
</trkpt>
<trkpt lat="34.8927375" lon="32.9134719">
<ele>1063.9</ele>
<time>2015-04-29T12:59:26Z</time>
</trkpt>
<trkpt lat="34.8928953" lon="32.9139497">
<ele>1060.7</ele>
<time>2015-04-29T12:59:40Z</time>
</trkpt>
<trkpt lat="34.8935827" lon="32.9142661">
<ele>1065.1</ele>
<time>2015-04-29T13:00:06Z</time>
</trkpt>
<trkpt lat="34.8938201" lon="32.9148388">
<ele>1065.1</ele>
<time>2015-04-29T13:00:25Z</time>
</trkpt>
<trkpt lat="34.8937624" lon="32.9156470">
<ele>1068.0</ele>
<time>2015-04-29T13:00:45Z</time>
</trkpt>
<trkpt lat="34.8934465" lon="32.9166397">
<ele>1062.4</ele>
<time>2015-04-29T13:01:11Z</time>
</trkpt>
<trkpt lat="34.8939046" lon="32.9173675">
<ele>1064.6</ele>
<time>2015-04-29T13:01:33Z</time>
</trkpt>
<trkpt lat="34.8938016" lon="32.9177946">
<ele>1061.0</ele>
<time>2015-04-29T13:01:45Z</time>
</trkpt>
<trkpt lat="34.8945223" lon="32.9186691">
<ele>1061.2</ele>
<time>2015-04-29T13:02:26Z</time>
</trkpt>
<trkpt lat="34.8957134" lon="32.9187443">
<ele>1052.4</ele>
<time>2015-04-29T13:02:42Z</time>
</trkpt>
<trkpt lat="34.8958049" lon="32.9193586">
<ele>1049.8</ele>
<time>2015-04-29T13:02:50Z</time>
</trkpt>
<trkpt lat="34.8963785" lon="32.9199661">
<ele>1050.9</ele>
<time>2015-04-29T13:03:02Z</time>
</trkpt>
<trkpt lat="34.8964626" lon="32.9206975">
<ele>1052.7</ele>
<time>2015-04-29T13:03:12Z</time>
</trkpt>
<trkpt lat="34.8962787" lon="32.9213067">
<ele>1050.6</ele>
<time>2015-04-29T13:03:22Z</time>
</trkpt>
<trkpt lat="34.8967643" lon="32.9219588">
<ele>1040.9</ele>
<time>2015-04-29T13:03:33Z</time>
</trkpt>
<trkpt lat="34.8975273" lon="32.9216443">
<ele>1040.8</ele>
<time>2015-04-29T13:03:43Z</time>
</trkpt>
<trkpt lat="34.8985471" lon="32.9200635">
<ele>1039.4</ele>
<time>2015-04-29T13:04:00Z</time>
</trkpt>
<trkpt lat="34.8988796" lon="32.9201637">
<ele>1032.3</ele>
<time>2015-04-29T13:04:07Z</time>
</trkpt>
<trkpt lat="34.8998227" lon="32.9215741">
<ele>1034.2</ele>
<time>2015-04-29T13:04:25Z</time>
</trkpt>
<trkpt lat="34.9000458" lon="32.9222368">
<ele>1039.7</ele>
<time>2015-04-29T13:04:36Z</time>
</trkpt>
<trkpt lat="34.9002208" lon="32.9235161">
<ele>1044.6</ele>
<time>2015-04-29T13:05:45Z</time>
</trkpt>
<trkpt lat="34.9006524" lon="32.9244812">
<ele>1042.6</ele>
<time>2015-04-29T13:06:24Z</time>
</trkpt>
<trkpt lat="34.9003855" lon="32.9253315">
<ele>1043.1</ele>
<time>2015-04-29T13:06:59Z</time>
</trkpt>
<trkpt lat="34.9004305" lon="32.9256124">
<ele>1041.7</ele>
<time>2015-04-29T13:07:10Z</time>
</trkpt>
<trkpt lat="34.9020528" lon="32.9273467">
<ele>1047.7</ele>
<time>2015-04-29T13:08:24Z</time>
</trkpt>
<trkpt lat="34.9020276" lon="32.9277315">
<ele>1055.3</ele>
<time>2015-04-29T13:08:28Z</time>
</trkpt>
<trkpt lat="34.9015450" lon="32.9282839">
<ele>1051.9</ele>
<time>2015-04-29T13:08:37Z</time>
</trkpt>
<trkpt lat="34.9015562" lon="32.9286959">
<ele>1055.1</ele>
<time>2015-04-29T13:08:44Z</time>
</trkpt>
<trkpt lat="34.9020485" lon="32.9290763">
<ele>1049.4</ele>
<time>2015-04-29T13:08:55Z</time>
</trkpt>
<trkpt lat="34.9028318" lon="32.9287304">
<ele>1042.9</ele>
<time>2015-04-29T13:09:04Z</time>
</trkpt>
<trkpt lat="34.9041666" lon="32.9289729">
<ele>1033.7</ele>
<time>2015-04-29T13:09:19Z</time>
</trkpt>
<trkpt lat="34.9042376" lon="32.9291127">
<ele>1036.3</ele>
<time>2015-04-29T13:09:21Z</time>
</trkpt>
<trkpt lat="34.9037446" lon="32.9301477">
<ele>1030.7</ele>
<time>2015-04-29T13:09:36Z</time>
</trkpt>
<trkpt lat="34.9037534" lon="32.9304059">
<ele>1030.4</ele>
<time>2015-04-29T13:09:39Z</time>
</trkpt>
<trkpt lat="34.9043971" lon="32.9312380">
<ele>1027.5</ele>
<time>2015-04-29T13:09:52Z</time>
</trkpt>
<trkpt lat="34.9056269" lon="32.9314648">
<ele>1034.1</ele>
<time>2015-04-29T13:10:14Z</time>
</trkpt>
<trkpt lat="34.9055178" lon="32.9323390">
<ele>1031.5</ele>
<time>2015-04-29T13:10:32Z</time>
</trkpt>
<trkpt lat="34.9060398" lon="32.9342868">
<ele>1042.1</ele>
<time>2015-04-29T13:11:25Z</time>
</trkpt>
<trkpt lat="34.9068290" lon="32.9348322">
<ele>1043.1</ele>
<time>2015-04-29T13:11:48Z</time>
</trkpt>
<trkpt lat="34.9087883" lon="32.9348196">
<ele>1034.0</ele>
<time>2015-04-29T13:12:20Z</time>
</trkpt>
<trkpt lat="34.9089620" lon="32.9356762">
<ele>1028.7</ele>
<time>2015-04-29T13:12:31Z</time>
</trkpt>
<trkpt lat="34.9095115" lon="32.9362021">
<ele>1029.8</ele>
<time>2015-04-29T13:12:40Z</time>
</trkpt>
<trkpt lat="34.9102293" lon="32.9363894">
<ele>1028.4</ele>
<time>2015-04-29T13:12:48Z</time>
</trkpt>
<trkpt lat="34.9106710" lon="32.9367556">
<ele>1025.6</ele>
<time>2015-04-29T13:12:53Z</time>
</trkpt>
<trkpt lat="34.9110202" lon="32.9373060">
<ele>1017.1</ele>
<time>2015-04-29T13:12:58Z</time>
</trkpt>
<trkpt lat="34.9112141" lon="32.9379710">
<ele>1009.8</ele>
<time>2015-04-29T13:13:03Z</time>
</trkpt>
<trkpt lat="34.9111760" lon="32.9395425">
<ele>999.5</ele>
<time>2015-04-29T13:13:14Z</time>
</trkpt>
<trkpt lat="34.9113182" lon="32.9399229">
<ele>996.0</ele>
<time>2015-04-29T13:13:18Z</time>
</trkpt>
<trkpt lat="34.9119882" lon="32.9396997">
<ele>998.0</ele>
<time>2015-04-29T13:13:27Z</time>
</trkpt>
<trkpt lat="34.9126506" lon="32.9386102">
<ele>994.1</ele>
<time>2015-04-29T13:13:39Z</time>
</trkpt>
<trkpt lat="34.9139390" lon="32.9389592">
<ele>986.1</ele>
<time>2015-04-29T13:14:08Z</time>
</trkpt>
<trkpt lat="34.9146443" lon="32.9385143">
<ele>981.7</ele>
<time>2015-04-29T13:14:20Z</time>
</trkpt>
<trkpt lat="34.9146280" lon="32.9379452">
<ele>985.3</ele>
<time>2015-04-29T13:14:28Z</time>
</trkpt>
<trkpt lat="34.9148594" lon="32.9372542">
<ele>980.8</ele>
<time>2015-04-29T13:14:38Z</time>
</trkpt>
<trkpt lat="34.9154722" lon="32.9370418">
<ele>972.9</ele>
<time>2015-04-29T13:15:11Z</time>
</trkpt>
<trkpt lat="34.9156694" lon="32.9366176">
<ele>971.7</ele>
<time>2015-04-29T13:15:18Z</time>
</trkpt>
<trkpt lat="34.9158793" lon="32.9366349">
<ele>969.0</ele>
<time>2015-04-29T13:15:24Z</time>
</trkpt>
<trkpt lat="34.9164532" lon="32.9372761">
<ele>963.5</ele>
<time>2015-04-29T13:15:46Z</time>
</trkpt>
<trkpt lat="34.9172852" lon="32.9369872">
<ele>965.2</ele>
<time>2015-04-29T13:16:08Z</time>
</trkpt>
<trkpt lat="34.9175654" lon="32.9370400">
<ele>964.0</ele>
<time>2015-04-29T13:17:11Z</time>
</trkpt>
<trkpt lat="34.9174002" lon="32.9370004">
<ele>964.4</ele>
<time>2015-04-29T13:17:21Z</time>
</trkpt>
<trkpt lat="34.9174251" lon="32.9367669">
<ele>967.7</ele>
<time>2015-04-29T13:17:31Z</time>
</trkpt>
<trkpt lat="34.9186921" lon="32.9351155">
<ele>980.2</ele>
<time>2015-04-29T13:19:46Z</time>
</trkpt>
<trkpt lat="34.9190289" lon="32.9347833">
<ele>984.1</ele>
<time>2015-04-29T13:20:10Z</time>
</trkpt>
<trkpt lat="34.9191345" lon="32.9349433">
<ele>982.1</ele>
<time>2015-04-29T13:49:45Z</time>
</trkpt>
<trkpt lat="34.9190207" lon="32.9348313">
<ele>983.5</ele>
<time>2015-04-29T13:50:46Z</time>
</trkpt>
<trkpt lat="34.9191686" lon="32.9346736">
<ele>985.4</ele>
<time>2015-04-29T13:53:08Z</time>
</trkpt>
<trkpt lat="34.9196876" lon="32.9344628">
<ele>985.1</ele>
<time>2015-04-29T13:53:31Z</time>
</trkpt>
<trkpt lat="34.9200121" lon="32.9345107">
<ele>981.8</ele>
<time>2015-04-29T13:53:39Z</time>
</trkpt>
<trkpt lat="34.9205425" lon="32.9349960">
<ele>977.2</ele>
<time>2015-04-29T13:53:54Z</time>
</trkpt>
<trkpt lat="34.9207186" lon="32.9356828">
<ele>982.7</ele>
<time>2015-04-29T13:54:18Z</time>
</trkpt>
<trkpt lat="34.9223186" lon="32.9362502">
<ele>996.7</ele>
<time>2015-04-29T13:56:07Z</time>
</trkpt>
<trkpt lat="34.9226188" lon="32.9361421">
<ele>1002.2</ele>
<time>2015-04-29T13:56:33Z</time>
</trkpt>
<trkpt lat="34.9232426" lon="32.9354610">
<ele>1013.7</ele>
<time>2015-04-29T13:57:48Z</time>
</trkpt>
<trkpt lat="34.9246745" lon="32.9347801">
<ele>1028.5</ele>
<time>2015-04-29T13:59:53Z</time>
</trkpt>
<trkpt lat="34.9261736" lon="32.9343602">
<ele>1039.1</ele>
<time>2015-04-29T14:01:46Z</time>
</trkpt>
<trkpt lat="34.9277233" lon="32.9345783">
<ele>1051.6</ele>
<time>2015-04-29T14:03:32Z</time>
</trkpt>
<trkpt lat="34.9294027" lon="32.9352862">
<ele>1062.1</ele>
<time>2015-04-29T14:05:30Z</time>
</trkpt>
<trkpt lat="34.9305537" lon="32.9352636">
<ele>1070.5</ele>
<time>2015-04-29T14:06:54Z</time>
</trkpt>
<trkpt lat="34.9314954" lon="32.9349958">
<ele>1082.3</ele>
<time>2015-04-29T14:07:56Z</time>
</trkpt>
<trkpt lat="34.9323858" lon="32.9344409">
<ele>1092.1</ele>
<time>2015-04-29T14:09:03Z</time>
</trkpt>
<trkpt lat="34.9340407" lon="32.9329324">
<ele>1101.8</ele>
<time>2015-04-29T14:11:40Z</time>
</trkpt>
<trkpt lat="34.9354050" lon="32.9328532">
<ele>1119.9</ele>
<time>2015-04-29T14:13:36Z</time>
</trkpt>
<trkpt lat="34.9392407" lon="32.9315260">
<ele>1154.6</ele>
<time>2015-04-29T14:19:01Z</time>
</trkpt>
<trkpt lat="34.9411322" lon="32.9305429">
<ele>1175.0</ele>
<time>2015-04-29T14:25:43Z</time>
</trkpt>
<trkpt lat="34.9426382" lon="32.9303908">
<ele>1184.4</ele>
<time>2015-04-29T14:27:14Z</time>
</trkpt>
<trkpt lat="34.9428245" lon="32.9290600">
<ele>1177.0</ele>
<time>2015-04-29T14:27:29Z</time>
</trkpt>
<trkpt lat="34.9445131" lon="32.9279922">
<ele>1164.3</ele>
<time>2015-04-29T14:27:47Z</time>
</trkpt>
<trkpt lat="34.9454231" lon="32.9264482">
<ele>1155.5</ele>
<time>2015-04-29T14:27:59Z</time>
</trkpt>
<trkpt lat="34.9458140" lon="32.9261189">
<ele>1151.8</ele>
<time>2015-04-29T14:28:03Z</time>
</trkpt>
<trkpt lat="34.9462999" lon="32.9262006">
<ele>1144.1</ele>
<time>2015-04-29T14:28:07Z</time>
</trkpt>
<trkpt lat="34.9465516" lon="32.9266593">
<ele>1137.3</ele>
<time>2015-04-29T14:28:12Z</time>
</trkpt>
<trkpt lat="34.9458548" lon="32.9287326">
<ele>1133.8</ele>
<time>2015-04-29T14:29:00Z</time>
</trkpt>
<trkpt lat="34.9459717" lon="32.9293067">
<ele>1132.1</ele>
<time>2015-04-29T14:29:08Z</time>
</trkpt>
<trkpt lat="34.9464466" lon="32.9297633">
<ele>1128.7</ele>
<time>2015-04-29T14:29:15Z</time>
</trkpt>
<trkpt lat="34.9469968" lon="32.9297937">
<ele>1119.4</ele>
<time>2015-04-29T14:29:21Z</time>
</trkpt>
<trkpt lat="34.9489032" lon="32.9286268">
<ele>1093.6</ele>
<time>2015-04-29T14:29:41Z</time>
</trkpt>
<trkpt lat="34.9495469" lon="32.9277993">
<ele>1089.9</ele>
<time>2015-04-29T14:29:48Z</time>
</trkpt>
<trkpt lat="34.9505557" lon="32.9259551">
<ele>1080.4</ele>
<time>2015-04-29T14:30:03Z</time>
</trkpt>
<trkpt lat="34.9512120" lon="32.9255954">
<ele>1069.9</ele>
<time>2015-04-29T14:30:09Z</time>
</trkpt>
<trkpt lat="34.9517686" lon="32.9257275">
<ele>1063.6</ele>
<time>2015-04-29T14:30:17Z</time>
</trkpt>
<trkpt lat="34.9517958" lon="32.9252207">
<ele>1064.9</ele>
<time>2015-04-29T14:31:25Z</time>
</trkpt>
<trkpt lat="34.9521434" lon="32.9251112">
<ele>1059.9</ele>
<time>2015-04-29T14:31:40Z</time>
</trkpt>
<trkpt lat="34.9523558" lon="32.9247918">
<ele>1061.6</ele>
<time>2015-04-29T14:31:52Z</time>
</trkpt>
<trkpt lat="34.9522192" lon="32.9243971">
<ele>1069.7</ele>
<time>2015-04-29T14:32:04Z</time>
</trkpt>
<trkpt lat="34.9524336" lon="32.9234470">
<ele>1069.8</ele>
<time>2015-04-29T14:32:33Z</time>
</trkpt>
<trkpt lat="34.9529212" lon="32.9235012">
<ele>1065.9</ele>
<time>2015-04-29T14:32:56Z</time>
</trkpt>
<trkpt lat="34.9536475" lon="32.9229848">
<ele>1065.7</ele>
<time>2015-04-29T14:33:21Z</time>
</trkpt>
<trkpt lat="34.9534853" lon="32.9224314">
<ele>1066.2</ele>
<time>2015-04-29T14:33:35Z</time>
</trkpt>
<trkpt lat="34.9530831" lon="32.9222233">
<ele>1074.1</ele>
<time>2015-04-29T14:33:46Z</time>
</trkpt>
<trkpt lat="34.9534693" lon="32.9217626">
<ele>1060.8</ele>
<time>2015-04-29T14:34:00Z</time>
</trkpt>
<trkpt lat="34.9531497" lon="32.9209647">
<ele>1073.8</ele>
<time>2015-04-29T14:34:20Z</time>
</trkpt>
<trkpt lat="34.9536543" lon="32.9200964">
<ele>1061.1</ele>
<time>2015-04-29T14:34:37Z</time>
</trkpt>
<trkpt lat="34.9534495" lon="32.9193639">
<ele>1063.7</ele>
<time>2015-04-29T14:34:51Z</time>
</trkpt>
<trkpt lat="34.9535248" lon="32.9191888">
<ele>1058.6</ele>
<time>2015-04-29T14:35:28Z</time>
</trkpt>
<trkpt lat="34.9541843" lon="32.9197665">
<ele>1051.2</ele>
<time>2015-04-29T14:44:24Z</time>
</trkpt>
<trkpt lat="34.9542325" lon="32.9208362">
<ele>1043.0</ele>
<time>2015-04-29T14:44:42Z</time>
</trkpt>
<trkpt lat="34.9555237" lon="32.9213584">
<ele>1038.0</ele>
<time>2015-04-29T14:45:01Z</time>
</trkpt>
<trkpt lat="34.9560429" lon="32.9221954">
<ele>1025.1</ele>
<time>2015-04-29T14:45:13Z</time>
</trkpt>
<trkpt lat="34.9565562" lon="32.9224057">
<ele>1022.8</ele>
<time>2015-04-29T14:45:20Z</time>
</trkpt>
<trkpt lat="34.9580443" lon="32.9218648">
<ele>1017.7</ele>
<time>2015-04-29T14:45:41Z</time>
</trkpt>
<trkpt lat="34.9592831" lon="32.9208143">
<ele>1016.6</ele>
<time>2015-04-29T14:46:15Z</time>
</trkpt>
<trkpt lat="34.9597874" lon="32.9213418">
<ele>999.4</ele>
<time>2015-04-29T14:46:32Z</time>
</trkpt>
<trkpt lat="34.9604151" lon="32.9214064">
<ele>994.5</ele>
<time>2015-04-29T14:46:43Z</time>
</trkpt>
<trkpt lat="34.9606771" lon="32.9211446">
<ele>1003.1</ele>
<time>2015-04-29T14:46:51Z</time>
</trkpt>
<trkpt lat="34.9610837" lon="32.9211218">
<ele>998.2</ele>
<time>2015-04-29T14:47:00Z</time>
</trkpt>
<trkpt lat="34.9617884" lon="32.9206160">
<ele>996.4</ele>
<time>2015-04-29T14:47:14Z</time>
</trkpt>
<trkpt lat="34.9620054" lon="32.9202143">
<ele>997.1</ele>
<time>2015-04-29T14:47:22Z</time>
</trkpt>
<trkpt lat="34.9622971" lon="32.9201729">
<ele>987.5</ele>
<time>2015-04-29T14:47:34Z</time>
</trkpt>
<trkpt lat="34.9622409" lon="32.9196745">
<ele>995.1</ele>
<time>2015-04-29T14:47:44Z</time>
</trkpt>
<trkpt lat="34.9624922" lon="32.9190485">
<ele>990.5</ele>
<time>2015-04-29T14:47:56Z</time>
</trkpt>
<trkpt lat="34.9628897" lon="32.9192707">
<ele>980.0</ele>
<time>2015-04-29T14:48:05Z</time>
</trkpt>
<trkpt lat="34.9632806" lon="32.9188162">
<ele>985.1</ele>
<time>2015-04-29T14:48:16Z</time>
</trkpt>
<trkpt lat="34.9637540" lon="32.9190784">
<ele>972.7</ele>
<time>2015-04-29T14:48:27Z</time>
</trkpt>
<trkpt lat="34.9644060" lon="32.9188842">
<ele>971.6</ele>
<time>2015-04-29T14:48:42Z</time>
</trkpt>
<trkpt lat="34.9646070" lon="32.9186013">
<ele>974.7</ele>
<time>2015-04-29T14:48:50Z</time>
</trkpt>
<trkpt lat="34.9645457" lon="32.9183392">
<ele>983.7</ele>
<time>2015-04-29T14:49:00Z</time>
</trkpt>
<trkpt lat="34.9647235" lon="32.9177049">
<ele>979.0</ele>
<time>2015-04-29T14:49:18Z</time>
</trkpt>
<trkpt lat="34.9644935" lon="32.9172677">
<ele>978.2</ele>
<time>2015-04-29T14:49:32Z</time>
</trkpt>
<trkpt lat="34.9640043" lon="32.9171702">
<ele>985.9</ele>
<time>2015-04-29T14:49:48Z</time>
</trkpt>
<trkpt lat="34.9636230" lon="32.9159651">
<ele>985.5</ele>
<time>2015-04-29T14:50:28Z</time>
</trkpt>
<trkpt lat="34.9638715" lon="32.9156413">
<ele>986.1</ele>
<time>2015-04-29T14:50:40Z</time>
</trkpt>
<trkpt lat="34.9645693" lon="32.9154119">
<ele>983.0</ele>
<time>2015-04-29T14:50:58Z</time>
</trkpt>
<trkpt lat="34.9649245" lon="32.9155490">
<ele>977.7</ele>
<time>2015-04-29T14:51:08Z</time>
</trkpt>
<trkpt lat="34.9655242" lon="32.9150708">
<ele>976.2</ele>
<time>2015-04-29T14:51:26Z</time>
</trkpt>
<trkpt lat="34.9656518" lon="32.9140400">
<ele>982.4</ele>
<time>2015-04-29T14:51:52Z</time>
</trkpt>
<trkpt lat="34.9654069" lon="32.9133579">
<ele>990.0</ele>
<time>2015-04-29T14:52:08Z</time>
</trkpt>
<trkpt lat="34.9655831" lon="32.9132014">
<ele>982.9</ele>
<time>2015-04-29T14:52:14Z</time>
</trkpt>
<trkpt lat="34.9662123" lon="32.9131639">
<ele>974.7</ele>
<time>2015-04-29T14:52:30Z</time>
</trkpt>
<trkpt lat="34.9663881" lon="32.9128118">
<ele>979.5</ele>
<time>2015-04-29T14:52:40Z</time>
</trkpt>
<trkpt lat="34.9662759" lon="32.9121557">
<ele>986.6</ele>
<time>2015-04-29T14:52:54Z</time>
</trkpt>
<trkpt lat="34.9660694" lon="32.9118133">
<ele>989.7</ele>
<time>2015-04-29T14:53:04Z</time>
</trkpt>
<trkpt lat="34.9664038" lon="32.9112750">
<ele>982.7</ele>
<time>2015-04-29T14:53:20Z</time>
</trkpt>
<trkpt lat="34.9663966" lon="32.9102563">
<ele>983.6</ele>
<time>2015-04-29T14:53:42Z</time>
</trkpt>
<trkpt lat="34.9667893" lon="32.9102716">
<ele>979.2</ele>
<time>2015-04-29T14:53:52Z</time>
</trkpt>
<trkpt lat="34.9672379" lon="32.9107530">
<ele>972.6</ele>
<time>2015-04-29T14:54:05Z</time>
</trkpt>
<trkpt lat="34.9674763" lon="32.9113372">
<ele>969.8</ele>
<time>2015-04-29T14:54:19Z</time>
</trkpt>
<trkpt lat="34.9677350" lon="32.9114831">
<ele>973.0</ele>
<time>2015-04-29T14:54:27Z</time>
</trkpt>
<trkpt lat="34.9681834" lon="32.9102302">
<ele>987.3</ele>
<time>2015-04-29T14:54:54Z</time>
</trkpt>
<trkpt lat="34.9682386" lon="32.9096636">
<ele>992.5</ele>
<time>2015-04-29T14:55:06Z</time>
</trkpt>
<trkpt lat="34.9688198" lon="32.9096513">
<ele>983.8</ele>
<time>2015-04-29T14:55:30Z</time>
</trkpt>
<trkpt lat="34.9690900" lon="32.9093134">
<ele>985.7</ele>
<time>2015-04-29T14:58:20Z</time>
</trkpt>
<trkpt lat="34.9691080" lon="32.9087062">
<ele>992.4</ele>
<time>2015-04-29T14:58:34Z</time>
</trkpt>
<trkpt lat="34.9695023" lon="32.9083719">
<ele>984.1</ele>
<time>2015-04-29T14:58:46Z</time>
</trkpt>
<trkpt lat="34.9697772" lon="32.9084108">
<ele>980.1</ele>
<time>2015-04-29T14:58:59Z</time>
</trkpt>
<trkpt lat="34.9693469" lon="32.9076605">
<ele>997.0</ele>
<time>2015-04-29T15:02:21Z</time>
</trkpt>
<trkpt lat="34.9695703" lon="32.9071547">
<ele>995.2</ele>
<time>2015-04-29T15:02:34Z</time>
</trkpt>
<trkpt lat="34.9703027" lon="32.9067721">
<ele>988.2</ele>
<time>2015-04-29T15:02:54Z</time>
</trkpt>
<trkpt lat="34.9705614" lon="32.9062429">
<ele>991.1</ele>
<time>2015-04-29T15:03:06Z</time>
</trkpt>
<trkpt lat="34.9699251" lon="32.9059780">
<ele>995.2</ele>
<time>2015-04-29T15:03:25Z</time>
</trkpt>
<trkpt lat="34.9701802" lon="32.9056114">
<ele>990.9</ele>
<time>2015-04-29T15:03:36Z</time>
</trkpt>
<trkpt lat="34.9701247" lon="32.9051754">
<ele>993.4</ele>
<time>2015-04-29T15:03:46Z</time>
</trkpt>
<trkpt lat="34.9707190" lon="32.9050165">
<ele>986.7</ele>
<time>2015-04-29T15:04:00Z</time>
</trkpt>
<trkpt lat="34.9708781" lon="32.9041459">
<ele>991.7</ele>
<time>2015-04-29T15:04:17Z</time>
</trkpt>
<trkpt lat="34.9712788" lon="32.9038279">
<ele>980.9</ele>
<time>2015-04-29T15:04:27Z</time>
</trkpt>
<trkpt lat="34.9708125" lon="32.9030571">
<ele>979.9</ele>
<time>2015-04-29T15:04:45Z</time>
</trkpt>
<trkpt lat="34.9704934" lon="32.9029419">
<ele>977.5</ele>
<time>2015-04-29T15:04:52Z</time>
</trkpt>
<trkpt lat="34.9706150" lon="32.9022781">
<ele>978.7</ele>
<time>2015-04-29T15:05:05Z</time>
</trkpt>
<trkpt lat="34.9702982" lon="32.9018661">
<ele>978.5</ele>
<time>2015-04-29T15:05:15Z</time>
</trkpt>
<trkpt lat="34.9703184" lon="32.9016859">
<ele>976.6</ele>
<time>2015-04-29T15:05:18Z</time>
</trkpt>
<trkpt lat="34.9709336" lon="32.9014754">
<ele>968.5</ele>
<time>2015-04-29T15:05:30Z</time>
</trkpt>
<trkpt lat="34.9713739" lon="32.9016049">
<ele>961.9</ele>
<time>2015-04-29T15:05:38Z</time>
</trkpt>
<trkpt lat="34.9715060" lon="32.9014683">
<ele>966.0</ele>
<time>2015-04-29T15:05:42Z</time>
</trkpt>
<trkpt lat="34.9712025" lon="32.9007316">
<ele>971.7</ele>
<time>2015-04-29T15:05:57Z</time>
</trkpt>
<trkpt lat="34.9715914" lon="32.9001008">
<ele>961.5</ele>
<time>2015-04-29T15:06:16Z</time>
</trkpt>
<trkpt lat="34.9711209" lon="32.8998136">
<ele>967.4</ele>
<time>2015-04-29T15:07:28Z</time>
</trkpt>
<trkpt lat="34.9711106" lon="32.8994576">
<ele>966.0</ele>
<time>2015-04-29T15:07:36Z</time>
</trkpt>
<trkpt lat="34.9720220" lon="32.8989412">
<ele>958.9</ele>
<time>2015-04-29T15:08:00Z</time>
</trkpt>
<trkpt lat="34.9721478" lon="32.8985681">
<ele>959.2</ele>
<time>2015-04-29T15:08:34Z</time>
</trkpt>
<trkpt lat="34.9718751" lon="32.8978123">
<ele>960.5</ele>
<time>2015-04-29T15:08:50Z</time>
</trkpt>
<trkpt lat="34.9726856" lon="32.8974342">
<ele>954.4</ele>
<time>2015-04-29T15:09:11Z</time>
</trkpt>
<trkpt lat="34.9730831" lon="32.8968546">
<ele>952.7</ele>
<time>2015-04-29T15:09:22Z</time>
</trkpt>
<trkpt lat="34.9730786" lon="32.8964789">
<ele>957.4</ele>
<time>2015-04-29T15:09:30Z</time>
</trkpt>
<trkpt lat="34.9727738" lon="32.8959362">
<ele>965.5</ele>
<time>2015-04-29T15:09:44Z</time>
</trkpt>
<trkpt lat="34.9729159" lon="32.8951970">
<ele>965.1</ele>
<time>2015-04-29T15:10:10Z</time>
</trkpt>
<trkpt lat="34.9732572" lon="32.8948599">
<ele>957.3</ele>
<time>2015-04-29T15:10:26Z</time>
</trkpt>
<trkpt lat="34.9731093" lon="32.8943077">
<ele>967.5</ele>
<time>2015-04-29T15:10:48Z</time>
</trkpt>
<trkpt lat="34.9733670" lon="32.8937208">
<ele>954.3</ele>
<time>2015-04-29T15:11:08Z</time>
</trkpt>
<trkpt lat="34.9727480" lon="32.8939653">
<ele>959.2</ele>
<time>2015-04-29T15:12:36Z</time>
</trkpt>
<trkpt lat="34.9721653" lon="32.8939475">
<ele>945.4</ele>
<time>2015-04-29T15:12:50Z</time>
</trkpt>
<trkpt lat="34.9712812" lon="32.8944504">
<ele>943.4</ele>
<time>2015-04-29T15:13:18Z</time>
</trkpt>
<trkpt lat="34.9711650" lon="32.8935472">
<ele>930.5</ele>
<time>2015-04-29T15:13:37Z</time>
</trkpt>
<trkpt lat="34.9715053" lon="32.8937897">
<ele>926.1</ele>
<time>2015-04-29T15:13:56Z</time>
</trkpt>
<trkpt lat="34.9718889" lon="32.8933089">
<ele>912.9</ele>
<time>2015-04-29T15:14:06Z</time>
</trkpt>
<trkpt lat="34.9724613" lon="32.8930007">
<ele>912.1</ele>
<time>2015-04-29T15:14:21Z</time>
</trkpt>
<trkpt lat="34.9721921" lon="32.8924056">
<ele>891.3</ele>
<time>2015-04-29T15:14:38Z</time>
</trkpt>
<trkpt lat="34.9723870" lon="32.8921199">
<ele>893.9</ele>
<time>2015-04-29T15:14:43Z</time>
</trkpt>
<trkpt lat="34.9728149" lon="32.8919716">
<ele>895.5</ele>
<time>2015-04-29T15:14:52Z</time>
</trkpt>
<trkpt lat="34.9737800" lon="32.8899140">
<ele>866.1</ele>
<time>2015-04-29T15:15:24Z</time>
</trkpt>
<trkpt lat="34.9742410" lon="32.8894740">
<ele>862.1</ele>
<time>2015-04-29T15:15:34Z</time>
</trkpt>
<trkpt lat="34.9744978" lon="32.8894748">
<ele>860.1</ele>
<time>2015-04-29T15:15:39Z</time>
</trkpt>
<trkpt lat="34.9749407" lon="32.8900190">
<ele>851.6</ele>
<time>2015-04-29T15:15:47Z</time>
</trkpt>
<trkpt lat="34.9757650" lon="32.8906133">
<ele>841.3</ele>
<time>2015-04-29T15:16:01Z</time>
</trkpt>
<trkpt lat="34.9761748" lon="32.8902544">
<ele>828.7</ele>
<time>2015-04-29T15:16:13Z</time>
</trkpt>
<trkpt lat="34.9772342" lon="32.8907385">
<ele>822.8</ele>
<time>2015-04-29T15:16:33Z</time>
</trkpt>
<trkpt lat="34.9778901" lon="32.8899562">
<ele>805.4</ele>
<time>2015-04-29T15:17:32Z</time>
</trkpt>
<trkpt lat="34.9788110" lon="32.8901224">
<ele>798.6</ele>
<time>2015-04-29T15:17:55Z</time>
</trkpt>
<trkpt lat="34.9791171" lon="32.8893368">
<ele>792.6</ele>
<time>2015-04-29T15:19:00Z</time>
</trkpt>
<trkpt lat="34.9783967" lon="32.8886403">
<ele>802.9</ele>
<time>2015-04-29T15:20:59Z</time>
</trkpt>
<trkpt lat="34.9782225" lon="32.8877152">
<ele>812.7</ele>
<time>2015-04-29T15:22:03Z</time>
</trkpt>
<trkpt lat="34.9780280" lon="32.8877722">
<ele>819.2</ele>
<time>2015-04-29T15:22:23Z</time>
</trkpt>
<trkpt lat="34.9776815" lon="32.8882783">
<ele>819.1</ele>
<time>2015-04-29T15:23:08Z</time>
</trkpt>
<trkpt lat="34.9771923" lon="32.8883861">
<ele>827.1</ele>
<time>2015-04-29T15:23:49Z</time>
</trkpt>
<trkpt lat="34.9766218" lon="32.8888729">
<ele>828.4</ele>
<time>2015-04-29T15:24:44Z</time>
</trkpt>
<trkpt lat="34.9757120" lon="32.8886086">
<ele>838.5</ele>
<time>2015-04-29T15:25:50Z</time>
</trkpt>
<trkpt lat="34.9757940" lon="32.8883406">
<ele>842.2</ele>
<time>2015-04-29T15:26:06Z</time>
</trkpt>
<trkpt lat="34.9763048" lon="32.8886096">
<ele>834.7</ele>
<time>2015-04-29T15:26:39Z</time>
</trkpt>
<trkpt lat="34.9766075" lon="32.8884652">
<ele>839.4</ele>
<time>2015-04-29T15:27:04Z</time>
</trkpt>
<trkpt lat="34.9778488" lon="32.8852574">
<ele>870.1</ele>
<time>2015-04-29T15:30:43Z</time>
</trkpt>
<trkpt lat="34.9782227" lon="32.8852040">
<ele>864.4</ele>
<time>2015-04-29T15:31:07Z</time>
</trkpt>
<trkpt lat="34.9789539" lon="32.8858332">
<ele>869.2</ele>
<time>2015-04-29T15:31:53Z</time>
</trkpt>
<trkpt lat="34.9796120" lon="32.8851446">
<ele>887.5</ele>
<time>2015-04-29T15:32:53Z</time>
</trkpt>
<trkpt lat="34.9805812" lon="32.8845828">
<ele>892.2</ele>
<time>2015-04-29T15:33:59Z</time>
</trkpt>
<trkpt lat="34.9809281" lon="32.8846340">
<ele>886.0</ele>
<time>2015-04-29T15:34:17Z</time>
</trkpt>
<trkpt lat="34.9817621" lon="32.8851726">
<ele>891.6</ele>
<time>2015-04-29T15:35:08Z</time>
</trkpt>
<trkpt lat="34.9826380" lon="32.8853789">
<ele>901.5</ele>
<time>2015-04-29T15:36:05Z</time>
</trkpt>
<trkpt lat="34.9830451" lon="32.8853891">
<ele>902.7</ele>
<time>2015-04-29T15:36:29Z</time>
</trkpt>
<trkpt lat="34.9833559" lon="32.8850604">
<ele>910.6</ele>
<time>2015-04-29T15:36:55Z</time>
</trkpt>
<trkpt lat="34.9831929" lon="32.8845959">
<ele>922.5</ele>
<time>2015-04-29T15:45:41Z</time>
</trkpt>
<trkpt lat="34.9822878" lon="32.8840575">
<ele>930.7</ele>
<time>2015-04-29T15:46:51Z</time>
</trkpt>
<trkpt lat="34.9810415" lon="32.8826373">
<ele>943.9</ele>
<time>2015-04-29T15:48:32Z</time>
</trkpt>
<trkpt lat="34.9811515" lon="32.8821637">
<ele>934.6</ele>
<time>2015-04-29T15:48:56Z</time>
</trkpt>
<trkpt lat="34.9823280" lon="32.8807688">
<ele>942.6</ele>
<time>2015-04-29T15:50:40Z</time>
</trkpt>
<trkpt lat="34.9824347" lon="32.8803749">
<ele>952.2</ele>
<time>2015-04-29T15:51:04Z</time>
</trkpt>
<trkpt lat="34.9820803" lon="32.8794337">
<ele>963.2</ele>
<time>2015-04-29T15:52:06Z</time>
</trkpt>
<trkpt lat="34.9823114" lon="32.8786313">
<ele>962.5</ele>
<time>2015-04-29T15:52:57Z</time>
</trkpt>
<trkpt lat="34.9816239" lon="32.8770716">
<ele>985.4</ele>
<time>2015-04-29T15:54:39Z</time>
</trkpt>
<trkpt lat="34.9814649" lon="32.8751963">
<ele>994.4</ele>
<time>2015-04-29T15:56:53Z</time>
</trkpt>
<trkpt lat="34.9818202" lon="32.8745580">
<ele>989.6</ele>
<time>2015-04-29T15:57:46Z</time>
</trkpt>
<trkpt lat="34.9824056" lon="32.8745921">
<ele>989.2</ele>
<time>2015-04-29T15:58:40Z</time>
</trkpt>
<trkpt lat="34.9828123" lon="32.8743835">
<ele>999.3</ele>
<time>2015-04-29T15:59:21Z</time>
</trkpt>
<trkpt lat="34.9830842" lon="32.8725975">
<ele>1019.0</ele>
<time>2015-04-29T16:01:28Z</time>
</trkpt>
<trkpt lat="34.9830346" lon="32.8723580">
<ele>1022.5</ele>
<time>2015-04-29T16:01:44Z</time>
</trkpt>
<trkpt lat="34.9826681" lon="32.8720312">
<ele>1026.2</ele>
<time>2015-04-29T16:10:24Z</time>
</trkpt>
<trkpt lat="34.9826036" lon="32.8715130">
<ele>1027.4</ele>
<time>2015-04-29T16:11:03Z</time>
</trkpt>
<trkpt lat="34.9828278" lon="32.8703644">
<ele>1037.1</ele>
<time>2015-04-29T16:12:27Z</time>
</trkpt>
<trkpt lat="34.9832846" lon="32.8696456">
<ele>1045.2</ele>
<time>2015-04-29T16:13:42Z</time>
</trkpt>
<trkpt lat="34.9834054" lon="32.8691471">
<ele>1048.5</ele>
<time>2015-04-29T16:14:29Z</time>
</trkpt>
<trkpt lat="34.9831391" lon="32.8683751">
<ele>1058.6</ele>
<time>2015-04-29T16:15:34Z</time>
</trkpt>
<trkpt lat="34.9820801" lon="32.8679079">
<ele>1068.2</ele>
<time>2015-04-29T16:17:08Z</time>
</trkpt>
<trkpt lat="34.9817435" lon="32.8674090">
<ele>1080.5</ele>
<time>2015-04-29T16:18:01Z</time>
</trkpt>
<trkpt lat="34.9818635" lon="32.8669796">
<ele>1075.8</ele>
<time>2015-04-29T16:18:24Z</time>
</trkpt>
<trkpt lat="34.9827420" lon="32.8659792">
<ele>1085.0</ele>
<time>2015-04-29T16:19:41Z</time>
</trkpt>
<trkpt lat="34.9831644" lon="32.8650635">
<ele>1091.5</ele>
<time>2015-04-29T16:20:57Z</time>
</trkpt>
<trkpt lat="34.9827496" lon="32.8632670">
<ele>1108.5</ele>
<time>2015-04-29T16:23:04Z</time>
</trkpt>
<trkpt lat="34.9829327" lon="32.8604733">
<ele>1124.3</ele>
<time>2015-04-29T16:26:52Z</time>
</trkpt>
<trkpt lat="34.9825912" lon="32.8580301">
<ele>1143.9</ele>
<time>2015-04-29T16:32:02Z</time>
</trkpt>
<trkpt lat="34.9818115" lon="32.8577556">
<ele>1150.3</ele>
<time>2015-04-29T16:36:21Z</time>
</trkpt>
<trkpt lat="34.9809531" lon="32.8579061">
<ele>1163.1</ele>
<time>2015-04-29T16:37:25Z</time>
</trkpt>
<trkpt lat="34.9807735" lon="32.8576233">
<ele>1158.5</ele>
<time>2015-04-29T16:37:47Z</time>
</trkpt>
<trkpt lat="34.9807089" lon="32.8570246">
<ele>1165.0</ele>
<time>2015-04-29T16:38:29Z</time>
</trkpt>
<trkpt lat="34.9797857" lon="32.8559138">
<ele>1178.5</ele>
<time>2015-04-29T16:40:19Z</time>
</trkpt>
<trkpt lat="34.9795009" lon="32.8551913">
<ele>1179.7</ele>
<time>2015-04-29T16:41:09Z</time>
</trkpt>
<trkpt lat="34.9789526" lon="32.8550571">
<ele>1180.1</ele>
<time>2015-04-29T16:41:49Z</time>
</trkpt>
<trkpt lat="34.9786460" lon="32.8554515">
<ele>1176.8</ele>
<time>2015-04-29T16:42:57Z</time>
</trkpt>
<trkpt lat="34.9784262" lon="32.8567039">
<ele>1190.2</ele>
<time>2015-04-29T16:44:06Z</time>
</trkpt>
<trkpt lat="34.9781125" lon="32.8568247">
<ele>1201.2</ele>
<time>2015-04-29T16:44:24Z</time>
</trkpt>
<trkpt lat="34.9775147" lon="32.8564261">
<ele>1199.9</ele>
<time>2015-04-29T16:45:19Z</time>
</trkpt>
<trkpt lat="34.9772964" lon="32.8565129">
<ele>1202.6</ele>
<time>2015-04-29T16:45:41Z</time>
</trkpt>
<trkpt lat="34.9768948" lon="32.8581516">
<ele>1215.0</ele>
<time>2015-04-29T16:47:39Z</time>
</trkpt>
<trkpt lat="34.9767208" lon="32.8583791">
<ele>1219.8</ele>
<time>2015-04-29T16:47:54Z</time>
</trkpt>
<trkpt lat="34.9764181" lon="32.8585177">
<ele>1219.4</ele>
<time>2015-04-29T16:48:15Z</time>
</trkpt>
<trkpt lat="34.9756713" lon="32.8580219">
<ele>1228.2</ele>
<time>2015-04-29T16:49:02Z</time>
</trkpt>
<trkpt lat="34.9747553" lon="32.8579600">
<ele>1224.8</ele>
<time>2015-04-29T16:49:54Z</time>
</trkpt>
<trkpt lat="34.9733466" lon="32.8589493">
<ele>1231.9</ele>
<time>2015-04-29T16:57:25Z</time>
</trkpt>
<trkpt lat="34.9731891" lon="32.8594333">
<ele>1228.5</ele>
<time>2015-04-29T16:57:49Z</time>
</trkpt>
<trkpt lat="34.9734220" lon="32.8603216">
<ele>1235.7</ele>
<time>2015-04-29T16:58:22Z</time>
</trkpt>
<trkpt lat="34.9734180" lon="32.8613962">
<ele>1240.8</ele>
<time>2015-04-29T16:59:10Z</time>
</trkpt>
<trkpt lat="34.9729692" lon="32.8623753">
<ele>1240.0</ele>
<time>2015-04-29T16:59:53Z</time>
</trkpt>
<trkpt lat="34.9730124" lon="32.8630335">
<ele>1248.5</ele>
<time>2015-04-29T17:00:20Z</time>
</trkpt>
<trkpt lat="34.9727097" lon="32.8632774">
<ele>1258.5</ele>
<time>2015-04-29T17:00:43Z</time>
</trkpt>
<trkpt lat="34.9717590" lon="32.8629449">
<ele>1263.0</ele>
<time>2015-04-29T17:01:36Z</time>
</trkpt>
<trkpt lat="34.9714882" lon="32.8627078">
<ele>1272.0</ele>
<time>2015-04-29T17:01:54Z</time>
</trkpt>
<trkpt lat="34.9713563" lon="32.8620003">
<ele>1269.7</ele>
<time>2015-04-29T17:02:26Z</time>
</trkpt>
<trkpt lat="34.9707922" lon="32.8617322">
<ele>1277.3</ele>
<time>2015-04-29T17:02:56Z</time>
</trkpt>
<trkpt lat="34.9704336" lon="32.8611018">
<ele>1277.1</ele>
<time>2015-04-29T17:03:25Z</time>
</trkpt>
<trkpt lat="34.9696607" lon="32.8611480">
<ele>1279.3</ele>
<time>2015-04-29T17:05:58Z</time>
</trkpt>
<trkpt lat="34.9686671" lon="32.8605627">
<ele>1283.3</ele>
<time>2015-04-29T17:06:50Z</time>
</trkpt>
<trkpt lat="34.9688293" lon="32.8585497">
<ele>1291.2</ele>
<time>2015-04-29T17:07:36Z</time>
</trkpt>
<trkpt lat="34.9684139" lon="32.8572035">
<ele>1296.9</ele>
<time>2015-04-29T17:08:15Z</time>
</trkpt>
<trkpt lat="34.9686670" lon="32.8568769">
<ele>1286.0</ele>
<time>2015-04-29T17:08:27Z</time>
</trkpt>
<trkpt lat="34.9693448" lon="32.8566314">
<ele>1288.4</ele>
<time>2015-04-29T17:08:47Z</time>
</trkpt>
<trkpt lat="34.9699003" lon="32.8553928">
<ele>1299.0</ele>
<time>2015-04-29T17:09:21Z</time>
</trkpt>
<trkpt lat="34.9699862" lon="32.8548668">
<ele>1305.8</ele>
<time>2015-04-29T17:09:35Z</time>
</trkpt>
<trkpt lat="34.9696988" lon="32.8544872">
<ele>1308.5</ele>
<time>2015-04-29T17:09:47Z</time>
</trkpt>
<trkpt lat="34.9686628" lon="32.8540457">
<ele>1313.2</ele>
<time>2015-04-29T17:10:27Z</time>
</trkpt>
<trkpt lat="34.9679938" lon="32.8532981">
<ele>1312.6</ele>
<time>2015-04-29T17:11:03Z</time>
</trkpt>
<trkpt lat="34.9679626" lon="32.8528325">
<ele>1311.3</ele>
<time>2015-04-29T17:11:18Z</time>
</trkpt>
<trkpt lat="34.9684839" lon="32.8520396">
<ele>1310.1</ele>
<time>2015-04-29T17:11:46Z</time>
</trkpt>
<trkpt lat="34.9680887" lon="32.8512278">
<ele>1323.0</ele>
<time>2015-04-29T17:12:10Z</time>
</trkpt>
<trkpt lat="34.9676618" lon="32.8497124">
<ele>1319.3</ele>
<time>2015-04-29T17:12:48Z</time>
</trkpt>
<trkpt lat="34.9674588" lon="32.8495530">
<ele>1314.5</ele>
<time>2015-04-29T17:13:55Z</time>
</trkpt>
<trkpt lat="34.9673037" lon="32.8497446">
<ele>1314.7</ele>
<time>2015-04-29T17:14:02Z</time>
</trkpt>
<trkpt lat="34.9666951" lon="32.8515516">
<ele>1311.1</ele>
<time>2015-04-29T17:14:31Z</time>
</trkpt>
<trkpt lat="34.9662611" lon="32.8519203">
<ele>1313.6</ele>
<time>2015-04-29T17:14:40Z</time>
</trkpt>
<trkpt lat="34.9658638" lon="32.8516765">
<ele>1321.8</ele>
<time>2015-04-29T17:14:47Z</time>
</trkpt>
<trkpt lat="34.9653581" lon="32.8508439">
<ele>1313.9</ele>
<time>2015-04-29T17:15:00Z</time>
</trkpt>
<trkpt lat="34.9646181" lon="32.8509724">
<ele>1318.1</ele>
<time>2015-04-29T17:15:13Z</time>
</trkpt>
<trkpt lat="34.9640511" lon="32.8501816">
<ele>1320.1</ele>
<time>2015-04-29T17:15:28Z</time>
</trkpt>
<trkpt lat="34.9625662" lon="32.8494417">
<ele>1316.9</ele>
<time>2015-04-29T17:15:54Z</time>
</trkpt>
<trkpt lat="34.9619598" lon="32.8486137">
<ele>1316.9</ele>
<time>2015-04-29T17:16:07Z</time>
</trkpt>
<trkpt lat="34.9613739" lon="32.8473324">
<ele>1314.1</ele>
<time>2015-04-29T17:16:25Z</time>
</trkpt>
<trkpt lat="34.9614296" lon="32.8469110">
<ele>1314.9</ele>
<time>2015-04-29T17:16:30Z</time>
</trkpt>
<trkpt lat="34.9623401" lon="32.8461150">
<ele>1309.2</ele>
<time>2015-04-29T17:16:45Z</time>
</trkpt>
<trkpt lat="34.9627870" lon="32.8454680">
<ele>1308.9</ele>
<time>2015-04-29T17:16:54Z</time>
</trkpt>
<trkpt lat="34.9628360" lon="32.8451680">
<ele>1310.8</ele>
<time>2015-04-29T17:16:57Z</time>
</trkpt>
<trkpt lat="34.9627375" lon="32.8445914">
<ele>1310.6</ele>
<time>2015-04-29T17:17:04Z</time>
</trkpt>
<trkpt lat="34.9619107" lon="32.8431185">
<ele>1308.8</ele>
<time>2015-04-29T17:17:24Z</time>
</trkpt>
<trkpt lat="34.9612358" lon="32.8425960">
<ele>1306.6</ele>
<time>2015-04-29T17:17:37Z</time>
</trkpt>
<trkpt lat="34.9597730" lon="32.8425557">
<ele>1312.4</ele>
<time>2015-04-29T17:17:59Z</time>
</trkpt>
<trkpt lat="34.9587454" lon="32.8416546">
<ele>1313.7</ele>
<time>2015-04-29T17:18:17Z</time>
</trkpt>
<trkpt lat="34.9577481" lon="32.8411931">
<ele>1312.3</ele>
<time>2015-04-29T17:18:33Z</time>
</trkpt>
<trkpt lat="34.9578580" lon="32.8407581">
<ele>1308.4</ele>
<time>2015-04-29T17:18:43Z</time>
</trkpt>
<trkpt lat="34.9583928" lon="32.8403458">
<ele>1306.0</ele>
<time>2015-04-29T17:18:58Z</time>
</trkpt>
<trkpt lat="34.9585238" lon="32.8399584">
<ele>1309.7</ele>
<time>2015-04-29T17:19:07Z</time>
</trkpt>
<trkpt lat="34.9577184" lon="32.8380811">
<ele>1321.7</ele>
<time>2015-04-29T17:20:05Z</time>
</trkpt>
<trkpt lat="34.9578576" lon="32.8370057">
<ele>1318.0</ele>
<time>2015-04-29T17:20:38Z</time>
</trkpt>
<trkpt lat="34.9587684" lon="32.8372063">
<ele>1313.1</ele>
<time>2015-04-29T17:21:07Z</time>
</trkpt>
<trkpt lat="34.9593475" lon="32.8371462">
<ele>1308.6</ele>
<time>2015-04-29T17:21:16Z</time>
</trkpt>
<trkpt lat="34.9594663" lon="32.8362624">
<ele>1307.6</ele>
<time>2015-04-29T17:21:28Z</time>
</trkpt>
<trkpt lat="34.9592721" lon="32.8359415">
<ele>1302.9</ele>
<time>2015-04-29T17:21:32Z</time>
</trkpt>
<trkpt lat="34.9586482" lon="32.8357065">
<ele>1301.8</ele>
<time>2015-04-29T17:21:39Z</time>
</trkpt>
<trkpt lat="34.9584782" lon="32.8354323">
<ele>1298.6</ele>
<time>2015-04-29T17:21:43Z</time>
</trkpt>
<trkpt lat="34.9589230" lon="32.8342301">
<ele>1294.0</ele>
<time>2015-04-29T17:22:03Z</time>
</trkpt>
<trkpt lat="34.9587257" lon="32.8329329">
<ele>1281.7</ele>
<time>2015-04-29T17:22:17Z</time>
</trkpt>
<trkpt lat="34.9580951" lon="32.8321814">
<ele>1270.1</ele>
<time>2015-04-29T17:22:27Z</time>
</trkpt>
<trkpt lat="34.9574956" lon="32.8321798">
<ele>1275.3</ele>
<time>2015-04-29T17:22:36Z</time>
</trkpt>
<trkpt lat="34.9574118" lon="32.8319970">
<ele>1275.2</ele>
<time>2015-04-29T17:22:40Z</time>
</trkpt>
<trkpt lat="34.9575892" lon="32.8311732">
<ele>1267.1</ele>
<time>2015-04-29T17:22:50Z</time>
</trkpt>
<trkpt lat="34.9582432" lon="32.8305355">
<ele>1255.6</ele>
<time>2015-04-29T17:23:01Z</time>
</trkpt>
<trkpt lat="34.9579628" lon="32.8297026">
<ele>1255.1</ele>
<time>2015-04-29T17:23:11Z</time>
</trkpt>
<trkpt lat="34.9580053" lon="32.8293468">
<ele>1243.8</ele>
<time>2015-04-29T17:23:15Z</time>
</trkpt>
<trkpt lat="34.9590897" lon="32.8289122">
<ele>1233.1</ele>
<time>2015-04-29T17:23:32Z</time>
</trkpt>
<trkpt lat="34.9590648" lon="32.8284194">
<ele>1238.2</ele>
<time>2015-04-29T17:23:39Z</time>
</trkpt>
<trkpt lat="34.9595287" lon="32.8279838">
<ele>1226.5</ele>
<time>2015-04-29T17:23:47Z</time>
</trkpt>
<trkpt lat="34.9595140" lon="32.8271182">
<ele>1227.0</ele>
<time>2015-04-29T17:23:57Z</time>
</trkpt>
<trkpt lat="34.9598447" lon="32.8269633">
<ele>1217.3</ele>
<time>2015-04-29T17:24:02Z</time>
</trkpt>
<trkpt lat="34.9606709" lon="32.8270656">
<ele>1205.8</ele>
<time>2015-04-29T17:24:13Z</time>
</trkpt>
<trkpt lat="34.9612814" lon="32.8276764">
<ele>1196.4</ele>
<time>2015-04-29T17:24:28Z</time>
</trkpt>
<trkpt lat="34.9617837" lon="32.8279401">
<ele>1192.1</ele>
<time>2015-04-29T17:24:35Z</time>
</trkpt>
<trkpt lat="34.9640695" lon="32.8283048">
<ele>1171.2</ele>
<time>2015-04-29T17:25:03Z</time>
</trkpt>
<trkpt lat="34.9647486" lon="32.8281434">
<ele>1172.0</ele>
<time>2015-04-29T17:25:14Z</time>
</trkpt>
<trkpt lat="34.9652575" lon="32.8278047">
<ele>1172.8</ele>
<time>2015-04-29T17:25:21Z</time>
</trkpt>
<trkpt lat="34.9669875" lon="32.8262873">
<ele>1165.1</ele>
<time>2015-04-29T17:26:15Z</time>
</trkpt>
<trkpt lat="34.9678861" lon="32.8256523">
<ele>1163.8</ele>
<time>2015-04-29T17:26:34Z</time>
</trkpt>
<trkpt lat="34.9686012" lon="32.8254269">
<ele>1159.4</ele>
<time>2015-04-29T17:26:46Z</time>
</trkpt>
<trkpt lat="34.9694750" lon="32.8244765">
<ele>1154.9</ele>
<time>2015-04-29T17:27:05Z</time>
</trkpt>
<trkpt lat="34.9704122" lon="32.8247640">
<ele>1148.2</ele>
<time>2015-04-29T17:27:28Z</time>
</trkpt>
<trkpt lat="34.9713335" lon="32.8243091">
<ele>1147.3</ele>
<time>2015-04-29T17:27:43Z</time>
</trkpt>
<trkpt lat="34.9717085" lon="32.8243951">
<ele>1139.2</ele>
<time>2015-04-29T17:27:50Z</time>
</trkpt>
<trkpt lat="34.9721088" lon="32.8242023">
<ele>1140.6</ele>
<time>2015-04-29T17:27:59Z</time>
</trkpt>
<trkpt lat="34.9718234" lon="32.8245610">
<ele>1132.2</ele>
<time>2015-04-29T17:28:13Z</time>
</trkpt>
<trkpt lat="34.9713635" lon="32.8245961">
<ele>1134.4</ele>
<time>2015-04-29T17:28:24Z</time>
</trkpt>
<trkpt lat="34.9706096" lon="32.8251858">
<ele>1126.5</ele>
<time>2015-04-29T17:28:45Z</time>
</trkpt>
<trkpt lat="34.9697258" lon="32.8251629">
<ele>1124.8</ele>
<time>2015-04-29T17:29:03Z</time>
</trkpt>
<trkpt lat="34.9694325" lon="32.8253650">
<ele>1126.2</ele>
<time>2015-04-29T17:29:11Z</time>
</trkpt>
<trkpt lat="34.9689631" lon="32.8262255">
<ele>1126.2</ele>
<time>2015-04-29T17:29:31Z</time>
</trkpt>
<trkpt lat="34.9684508" lon="32.8267378">
<ele>1122.5</ele>
<time>2015-04-29T17:29:50Z</time>
</trkpt>
<trkpt lat="34.9686060" lon="32.8277688">
<ele>1108.8</ele>
<time>2015-04-29T17:30:07Z</time>
</trkpt>
<trkpt lat="34.9683897" lon="32.8279860">
<ele>1106.4</ele>
<time>2015-04-29T17:30:17Z</time>
</trkpt>
<trkpt lat="34.9677140" lon="32.8275815">
<ele>1107.8</ele>
<time>2015-04-29T17:30:54Z</time>
</trkpt>
</trkseg>
</trk>
</gpx>